<?xml version="1.0" encoding="UTF-8" standalone="no" ?>
<gpx xmlns="http://www.topografix.com/GPX/1/1" xmlns:xsi="http://www.w3.org/2001/XMLSchema-instance" xsi:schemaLocation="http://www.topografix.com/GPX/1/1 http://www.topografix.com/GPX/1/1/gpx.xsd" version="1.1" creator="VisuGPX - https://www.visugpx.com">
  <metadata>
    <name>2023-01-22 L'Arpillon</name>
  </metadata>
  <trk>
    <name><![CDATA[2023-01-22 13:19:20]]></name>
    <trkseg>
      <trkpt lat="44.47398" lon="6.72052">
        <ele>1727.63</ele>
        <time>2023-01-22T08:12:48Z</time>
      </trkpt>
      <trkpt lat="44.474" lon="6.72053">
        <ele>1728.11</ele>
        <time>2023-01-22T08:13:02Z</time>
      </trkpt>
      <trkpt lat="44.47399" lon="6.72051">
        <ele>1728.59</ele>
        <time>2023-01-22T08:13:24Z</time>
      </trkpt>
      <trkpt lat="44.474" lon="6.72053">
        <ele>1727.63</ele>
        <time>2023-01-22T08:13:47Z</time>
      </trkpt>
      <trkpt lat="44.474" lon="6.72051">
        <ele>1727.15</ele>
        <time>2023-01-22T08:14:00Z</time>
      </trkpt>
      <trkpt lat="44.47399" lon="6.7205">
        <ele>1726.18</ele>
        <time>2023-01-22T08:14:13Z</time>
      </trkpt>
      <trkpt lat="44.47397" lon="6.7205">
        <ele>1726.67</ele>
        <time>2023-01-22T08:14:22Z</time>
      </trkpt>
      <trkpt lat="44.47396" lon="6.7205">
        <ele>1727.63</ele>
        <time>2023-01-22T08:14:32Z</time>
      </trkpt>
      <trkpt lat="44.47397" lon="6.72049">
        <ele>1727.63</ele>
        <time>2023-01-22T08:14:41Z</time>
      </trkpt>
      <trkpt lat="44.47398" lon="6.7205">
        <ele>1727.15</ele>
        <time>2023-01-22T08:14:53Z</time>
      </trkpt>
      <trkpt lat="44.47397" lon="6.72045">
        <ele>1727.63</ele>
        <time>2023-01-22T08:15:04Z</time>
      </trkpt>
      <trkpt lat="44.47396" lon="6.72043">
        <ele>1726.67</ele>
        <time>2023-01-22T08:15:21Z</time>
      </trkpt>
      <trkpt lat="44.47397" lon="6.7204">
        <ele>1728.11</ele>
        <time>2023-01-22T08:15:37Z</time>
      </trkpt>
      <trkpt lat="44.47398" lon="6.72041">
        <ele>1727.63</ele>
        <time>2023-01-22T08:15:55Z</time>
      </trkpt>
      <trkpt lat="44.47397" lon="6.72039">
        <ele>1728.11</ele>
        <time>2023-01-22T08:16:09Z</time>
      </trkpt>
      <trkpt lat="44.47398" lon="6.72039">
        <ele>1729.07</ele>
        <time>2023-01-22T08:16:22Z</time>
      </trkpt>
      <trkpt lat="44.47398" lon="6.72037">
        <ele>1728.59</ele>
        <time>2023-01-22T08:16:33Z</time>
      </trkpt>
      <trkpt lat="44.47397" lon="6.72036">
        <ele>1728.59</ele>
        <time>2023-01-22T08:16:41Z</time>
      </trkpt>
      <trkpt lat="44.474" lon="6.72027">
        <ele>1730.03</ele>
        <time>2023-01-22T08:16:54Z</time>
      </trkpt>
      <trkpt lat="44.47408" lon="6.72009">
        <ele>1731.47</ele>
        <time>2023-01-22T08:17:09Z</time>
      </trkpt>
      <trkpt lat="44.47414" lon="6.71993">
        <ele>1730.99</ele>
        <time>2023-01-22T08:17:21Z</time>
      </trkpt>
      <trkpt lat="44.4742" lon="6.71977">
        <ele>1731.47</ele>
        <time>2023-01-22T08:17:33Z</time>
      </trkpt>
      <trkpt lat="44.47421" lon="6.71969">
        <ele>1731.47</ele>
        <time>2023-01-22T08:17:43Z</time>
      </trkpt>
      <trkpt lat="44.47413" lon="6.71959">
        <ele>1730.99</ele>
        <time>2023-01-22T08:17:56Z</time>
      </trkpt>
      <trkpt lat="44.47413" lon="6.71958">
        <ele>1730.51</ele>
        <time>2023-01-22T08:17:57Z</time>
      </trkpt>
      <trkpt lat="44.47411" lon="6.71939">
        <ele>1730.99</ele>
        <time>2023-01-22T08:18:11Z</time>
      </trkpt>
      <trkpt lat="44.4741" lon="6.71924">
        <ele>1731.95</ele>
        <time>2023-01-22T08:18:25Z</time>
      </trkpt>
      <trkpt lat="44.47412" lon="6.7191">
        <ele>1732.91</ele>
        <time>2023-01-22T08:18:38Z</time>
      </trkpt>
      <trkpt lat="44.47411" lon="6.71897">
        <ele>1734.36</ele>
        <time>2023-01-22T08:18:51Z</time>
      </trkpt>
      <trkpt lat="44.47411" lon="6.71892">
        <ele>1735.8</ele>
        <time>2023-01-22T08:18:56Z</time>
      </trkpt>
      <trkpt lat="44.47408" lon="6.71883">
        <ele>1738.2</ele>
        <time>2023-01-22T08:19:09Z</time>
      </trkpt>
      <trkpt lat="44.4741" lon="6.71872">
        <ele>1738.68</ele>
        <time>2023-01-22T08:19:20Z</time>
      </trkpt>
      <trkpt lat="44.47406" lon="6.71863">
        <ele>1739.64</ele>
        <time>2023-01-22T08:19:31Z</time>
      </trkpt>
      <trkpt lat="44.47404" lon="6.7186">
        <ele>1739.64</ele>
        <time>2023-01-22T08:19:36Z</time>
      </trkpt>
      <trkpt lat="44.47401" lon="6.71855">
        <ele>1740.6</ele>
        <time>2023-01-22T08:19:42Z</time>
      </trkpt>
      <trkpt lat="44.47397" lon="6.71851">
        <ele>1741.57</ele>
        <time>2023-01-22T08:19:48Z</time>
      </trkpt>
      <trkpt lat="44.4739" lon="6.71842">
        <ele>1743.97</ele>
        <time>2023-01-22T08:20:01Z</time>
      </trkpt>
      <trkpt lat="44.47388" lon="6.71827">
        <ele>1746.37</ele>
        <time>2023-01-22T08:20:13Z</time>
      </trkpt>
      <trkpt lat="44.47385" lon="6.71811">
        <ele>1748.78</ele>
        <time>2023-01-22T08:20:26Z</time>
      </trkpt>
      <trkpt lat="44.47385" lon="6.71807">
        <ele>1749.74</ele>
        <time>2023-01-22T08:20:30Z</time>
      </trkpt>
      <trkpt lat="44.47384" lon="6.718">
        <ele>1750.7</ele>
        <time>2023-01-22T08:20:35Z</time>
      </trkpt>
      <trkpt lat="44.47382" lon="6.71791">
        <ele>1752.14</ele>
        <time>2023-01-22T08:20:44Z</time>
      </trkpt>
      <trkpt lat="44.47378" lon="6.71783">
        <ele>1753.58</ele>
        <time>2023-01-22T08:20:57Z</time>
      </trkpt>
      <trkpt lat="44.47377" lon="6.71779">
        <ele>1755.5</ele>
        <time>2023-01-22T08:21:13Z</time>
      </trkpt>
      <trkpt lat="44.47376" lon="6.71776">
        <ele>1756.47</ele>
        <time>2023-01-22T08:21:16Z</time>
      </trkpt>
      <trkpt lat="44.47372" lon="6.71768">
        <ele>1756.95</ele>
        <time>2023-01-22T08:21:28Z</time>
      </trkpt>
      <trkpt lat="44.47366" lon="6.71757">
        <ele>1757.43</ele>
        <time>2023-01-22T08:21:41Z</time>
      </trkpt>
      <trkpt lat="44.47365" lon="6.71755">
        <ele>1757.43</ele>
        <time>2023-01-22T08:21:43Z</time>
      </trkpt>
      <trkpt lat="44.47362" lon="6.7174">
        <ele>1758.87</ele>
        <time>2023-01-22T08:21:57Z</time>
      </trkpt>
      <trkpt lat="44.47363" lon="6.71728">
        <ele>1759.83</ele>
        <time>2023-01-22T08:22:09Z</time>
      </trkpt>
      <trkpt lat="44.47366" lon="6.71723">
        <ele>1760.31</ele>
        <time>2023-01-22T08:22:14Z</time>
      </trkpt>
      <trkpt lat="44.47371" lon="6.7171">
        <ele>1761.27</ele>
        <time>2023-01-22T08:22:29Z</time>
      </trkpt>
      <trkpt lat="44.47376" lon="6.717">
        <ele>1763.68</ele>
        <time>2023-01-22T08:22:41Z</time>
      </trkpt>
      <trkpt lat="44.4738" lon="6.71691">
        <ele>1764.64</ele>
        <time>2023-01-22T08:22:53Z</time>
      </trkpt>
      <trkpt lat="44.47385" lon="6.71683">
        <ele>1766.08</ele>
        <time>2023-01-22T08:23:06Z</time>
      </trkpt>
      <trkpt lat="44.47387" lon="6.71675">
        <ele>1767.52</ele>
        <time>2023-01-22T08:23:18Z</time>
      </trkpt>
      <trkpt lat="44.47391" lon="6.71664">
        <ele>1769.44</ele>
        <time>2023-01-22T08:23:32Z</time>
      </trkpt>
      <trkpt lat="44.4739" lon="6.71656">
        <ele>1770.41</ele>
        <time>2023-01-22T08:23:44Z</time>
      </trkpt>
      <trkpt lat="44.47388" lon="6.71654">
        <ele>1770.41</ele>
        <time>2023-01-22T08:23:48Z</time>
      </trkpt>
      <trkpt lat="44.47379" lon="6.71651">
        <ele>1772.81</ele>
        <time>2023-01-22T08:24:01Z</time>
      </trkpt>
      <trkpt lat="44.47378" lon="6.71651">
        <ele>1773.29</ele>
        <time>2023-01-22T08:24:04Z</time>
      </trkpt>
      <trkpt lat="44.47376" lon="6.71644">
        <ele>1773.77</ele>
        <time>2023-01-22T08:24:11Z</time>
      </trkpt>
      <trkpt lat="44.47377" lon="6.71632">
        <ele>1775.21</ele>
        <time>2023-01-22T08:24:24Z</time>
      </trkpt>
      <trkpt lat="44.47377" lon="6.71618">
        <ele>1776.65</ele>
        <time>2023-01-22T08:24:38Z</time>
      </trkpt>
      <trkpt lat="44.47376" lon="6.71613">
        <ele>1777.13</ele>
        <time>2023-01-22T08:24:53Z</time>
      </trkpt>
      <trkpt lat="44.47376" lon="6.71611">
        <ele>1779.06</ele>
        <time>2023-01-22T08:25:07Z</time>
      </trkpt>
      <trkpt lat="44.47377" lon="6.71611">
        <ele>1779.54</ele>
        <time>2023-01-22T08:25:31Z</time>
      </trkpt>
      <trkpt lat="44.47375" lon="6.71611">
        <ele>1779.54</ele>
        <time>2023-01-22T08:25:52Z</time>
      </trkpt>
      <trkpt lat="44.47375" lon="6.7161">
        <ele>1778.58</ele>
        <time>2023-01-22T08:26:10Z</time>
      </trkpt>
      <trkpt lat="44.47375" lon="6.71611">
        <ele>1778.58</ele>
        <time>2023-01-22T08:26:25Z</time>
      </trkpt>
      <trkpt lat="44.47375" lon="6.71608">
        <ele>1778.58</ele>
        <time>2023-01-22T08:26:32Z</time>
      </trkpt>
      <trkpt lat="44.47376" lon="6.71601">
        <ele>1778.58</ele>
        <time>2023-01-22T08:26:43Z</time>
      </trkpt>
      <trkpt lat="44.47375" lon="6.71593">
        <ele>1779.06</ele>
        <time>2023-01-22T08:26:49Z</time>
      </trkpt>
      <trkpt lat="44.47375" lon="6.71589">
        <ele>1779.06</ele>
        <time>2023-01-22T08:26:52Z</time>
      </trkpt>
      <trkpt lat="44.47375" lon="6.71575">
        <ele>1779.54</ele>
        <time>2023-01-22T08:27:04Z</time>
      </trkpt>
      <trkpt lat="44.47374" lon="6.71568">
        <ele>1780.02</ele>
        <time>2023-01-22T08:27:10Z</time>
      </trkpt>
      <trkpt lat="44.47374" lon="6.71563">
        <ele>1780.02</ele>
        <time>2023-01-22T08:27:14Z</time>
      </trkpt>
      <trkpt lat="44.47373" lon="6.71558">
        <ele>1780.02</ele>
        <time>2023-01-22T08:27:18Z</time>
      </trkpt>
      <trkpt lat="44.47373" lon="6.71541">
        <ele>1781.94</ele>
        <time>2023-01-22T08:27:33Z</time>
      </trkpt>
      <trkpt lat="44.47373" lon="6.71538">
        <ele>1782.42</ele>
        <time>2023-01-22T08:27:35Z</time>
      </trkpt>
      <trkpt lat="44.47374" lon="6.71532">
        <ele>1782.42</ele>
        <time>2023-01-22T08:27:40Z</time>
      </trkpt>
      <trkpt lat="44.47378" lon="6.71521">
        <ele>1782.9</ele>
        <time>2023-01-22T08:27:52Z</time>
      </trkpt>
      <trkpt lat="44.47382" lon="6.71511">
        <ele>1783.86</ele>
        <time>2023-01-22T08:28:04Z</time>
      </trkpt>
      <trkpt lat="44.47387" lon="6.71504">
        <ele>1785.79</ele>
        <time>2023-01-22T08:28:16Z</time>
      </trkpt>
      <trkpt lat="44.47392" lon="6.715">
        <ele>1787.23</ele>
        <time>2023-01-22T08:28:27Z</time>
      </trkpt>
      <trkpt lat="44.47396" lon="6.71493">
        <ele>1789.15</ele>
        <time>2023-01-22T08:28:37Z</time>
      </trkpt>
      <trkpt lat="44.47395" lon="6.71482">
        <ele>1790.59</ele>
        <time>2023-01-22T08:28:49Z</time>
      </trkpt>
      <trkpt lat="44.47395" lon="6.71473">
        <ele>1792.03</ele>
        <time>2023-01-22T08:28:59Z</time>
      </trkpt>
      <trkpt lat="44.47395" lon="6.71469">
        <ele>1793</ele>
        <time>2023-01-22T08:29:03Z</time>
      </trkpt>
      <trkpt lat="44.47396" lon="6.71459">
        <ele>1793.48</ele>
        <time>2023-01-22T08:29:13Z</time>
      </trkpt>
      <trkpt lat="44.47397" lon="6.71448">
        <ele>1795.4</ele>
        <time>2023-01-22T08:29:24Z</time>
      </trkpt>
      <trkpt lat="44.47395" lon="6.71434">
        <ele>1795.88</ele>
        <time>2023-01-22T08:29:38Z</time>
      </trkpt>
      <trkpt lat="44.47394" lon="6.71426">
        <ele>1796.84</ele>
        <time>2023-01-22T08:29:46Z</time>
      </trkpt>
      <trkpt lat="44.47392" lon="6.71417">
        <ele>1797.32</ele>
        <time>2023-01-22T08:29:55Z</time>
      </trkpt>
      <trkpt lat="44.4739" lon="6.71406">
        <ele>1799.24</ele>
        <time>2023-01-22T08:30:08Z</time>
      </trkpt>
      <trkpt lat="44.47386" lon="6.71398">
        <ele>1801.17</ele>
        <time>2023-01-22T08:30:20Z</time>
      </trkpt>
      <trkpt lat="44.4738" lon="6.71392">
        <ele>1804.05</ele>
        <time>2023-01-22T08:30:32Z</time>
      </trkpt>
      <trkpt lat="44.47383" lon="6.71375">
        <ele>1803.57</ele>
        <time>2023-01-22T08:30:44Z</time>
      </trkpt>
      <trkpt lat="44.47386" lon="6.71364">
        <ele>1804.05</ele>
        <time>2023-01-22T08:30:56Z</time>
      </trkpt>
      <trkpt lat="44.4739" lon="6.71351">
        <ele>1805.49</ele>
        <time>2023-01-22T08:31:09Z</time>
      </trkpt>
      <trkpt lat="44.47391" lon="6.71341">
        <ele>1806.45</ele>
        <time>2023-01-22T08:31:22Z</time>
      </trkpt>
      <trkpt lat="44.47384" lon="6.71342">
        <ele>1807.42</ele>
        <time>2023-01-22T08:31:33Z</time>
      </trkpt>
      <trkpt lat="44.47376" lon="6.71344">
        <ele>1810.78</ele>
        <time>2023-01-22T08:31:46Z</time>
      </trkpt>
      <trkpt lat="44.47373" lon="6.71342">
        <ele>1813.66</ele>
        <time>2023-01-22T08:32:00Z</time>
      </trkpt>
      <trkpt lat="44.47374" lon="6.71331">
        <ele>1814.63</ele>
        <time>2023-01-22T08:32:11Z</time>
      </trkpt>
      <trkpt lat="44.47377" lon="6.71321">
        <ele>1815.59</ele>
        <time>2023-01-22T08:32:24Z</time>
      </trkpt>
      <trkpt lat="44.47378" lon="6.71313">
        <ele>1817.03</ele>
        <time>2023-01-22T08:32:34Z</time>
      </trkpt>
      <trkpt lat="44.47378" lon="6.71304">
        <ele>1818.95</ele>
        <time>2023-01-22T08:32:47Z</time>
      </trkpt>
      <trkpt lat="44.47379" lon="6.71293">
        <ele>1821.84</ele>
        <time>2023-01-22T08:32:58Z</time>
      </trkpt>
      <trkpt lat="44.47383" lon="6.71282">
        <ele>1823.28</ele>
        <time>2023-01-22T08:33:09Z</time>
      </trkpt>
      <trkpt lat="44.47388" lon="6.71273">
        <ele>1823.76</ele>
        <time>2023-01-22T08:33:23Z</time>
      </trkpt>
      <trkpt lat="44.4739" lon="6.71271">
        <ele>1824.24</ele>
        <time>2023-01-22T08:33:26Z</time>
      </trkpt>
      <trkpt lat="44.47397" lon="6.71263">
        <ele>1825.68</ele>
        <time>2023-01-22T08:33:39Z</time>
      </trkpt>
      <trkpt lat="44.47404" lon="6.71257">
        <ele>1827.6</ele>
        <time>2023-01-22T08:33:52Z</time>
      </trkpt>
      <trkpt lat="44.47411" lon="6.7125">
        <ele>1828.56</ele>
        <time>2023-01-22T08:34:05Z</time>
      </trkpt>
      <trkpt lat="44.47413" lon="6.71249">
        <ele>1829.53</ele>
        <time>2023-01-22T08:34:10Z</time>
      </trkpt>
      <trkpt lat="44.47422" lon="6.71247">
        <ele>1830.49</ele>
        <time>2023-01-22T08:34:22Z</time>
      </trkpt>
      <trkpt lat="44.4743" lon="6.71243">
        <ele>1831.45</ele>
        <time>2023-01-22T08:34:35Z</time>
      </trkpt>
      <trkpt lat="44.47435" lon="6.71238">
        <ele>1833.37</ele>
        <time>2023-01-22T08:34:46Z</time>
      </trkpt>
      <trkpt lat="44.47435" lon="6.71232">
        <ele>1835.29</ele>
        <time>2023-01-22T08:34:56Z</time>
      </trkpt>
      <trkpt lat="44.47438" lon="6.71221">
        <ele>1836.26</ele>
        <time>2023-01-22T08:35:10Z</time>
      </trkpt>
      <trkpt lat="44.4744" lon="6.71211">
        <ele>1838.66</ele>
        <time>2023-01-22T08:35:23Z</time>
      </trkpt>
      <trkpt lat="44.47442" lon="6.712">
        <ele>1841.54</ele>
        <time>2023-01-22T08:35:36Z</time>
      </trkpt>
      <trkpt lat="44.47449" lon="6.71192">
        <ele>1841.54</ele>
        <time>2023-01-22T08:35:50Z</time>
      </trkpt>
      <trkpt lat="44.47455" lon="6.71188">
        <ele>1843.47</ele>
        <time>2023-01-22T08:36:03Z</time>
      </trkpt>
      <trkpt lat="44.47456" lon="6.71187">
        <ele>1843.47</ele>
        <time>2023-01-22T08:36:05Z</time>
      </trkpt>
      <trkpt lat="44.47461" lon="6.71175">
        <ele>1843.47</ele>
        <time>2023-01-22T08:36:18Z</time>
      </trkpt>
      <trkpt lat="44.47465" lon="6.71164">
        <ele>1844.43</ele>
        <time>2023-01-22T08:36:29Z</time>
      </trkpt>
      <trkpt lat="44.47466" lon="6.71158">
        <ele>1844.91</ele>
        <time>2023-01-22T08:36:35Z</time>
      </trkpt>
      <trkpt lat="44.47466" lon="6.7115">
        <ele>1846.35</ele>
        <time>2023-01-22T08:36:43Z</time>
      </trkpt>
      <trkpt lat="44.47467" lon="6.71138">
        <ele>1847.79</ele>
        <time>2023-01-22T08:36:57Z</time>
      </trkpt>
      <trkpt lat="44.47471" lon="6.7113">
        <ele>1849.23</ele>
        <time>2023-01-22T08:37:09Z</time>
      </trkpt>
      <trkpt lat="44.47474" lon="6.71129">
        <ele>1850.19</ele>
        <time>2023-01-22T08:37:14Z</time>
      </trkpt>
      <trkpt lat="44.47483" lon="6.71124">
        <ele>1853.08</ele>
        <time>2023-01-22T08:37:28Z</time>
      </trkpt>
      <trkpt lat="44.47488" lon="6.71124">
        <ele>1855.48</ele>
        <time>2023-01-22T08:37:39Z</time>
      </trkpt>
      <trkpt lat="44.47492" lon="6.71117">
        <ele>1857.89</ele>
        <time>2023-01-22T08:37:52Z</time>
      </trkpt>
      <trkpt lat="44.47489" lon="6.71115">
        <ele>1858.37</ele>
        <time>2023-01-22T08:38:02Z</time>
      </trkpt>
      <trkpt lat="44.47487" lon="6.7111">
        <ele>1858.85</ele>
        <time>2023-01-22T08:38:12Z</time>
      </trkpt>
      <trkpt lat="44.47484" lon="6.71109">
        <ele>1860.29</ele>
        <time>2023-01-22T08:38:24Z</time>
      </trkpt>
      <trkpt lat="44.4748" lon="6.71107">
        <ele>1861.25</ele>
        <time>2023-01-22T08:38:39Z</time>
      </trkpt>
      <trkpt lat="44.47479" lon="6.71106">
        <ele>1861.73</ele>
        <time>2023-01-22T08:38:46Z</time>
      </trkpt>
      <trkpt lat="44.47467" lon="6.71102">
        <ele>1863.65</ele>
        <time>2023-01-22T08:39:00Z</time>
      </trkpt>
      <trkpt lat="44.47457" lon="6.71098">
        <ele>1864.61</ele>
        <time>2023-01-22T08:39:13Z</time>
      </trkpt>
      <trkpt lat="44.47451" lon="6.71095">
        <ele>1867.5</ele>
        <time>2023-01-22T08:39:25Z</time>
      </trkpt>
      <trkpt lat="44.47456" lon="6.71091">
        <ele>1869.42</ele>
        <time>2023-01-22T08:39:34Z</time>
      </trkpt>
      <trkpt lat="44.47465" lon="6.71086">
        <ele>1871.82</ele>
        <time>2023-01-22T08:39:47Z</time>
      </trkpt>
      <trkpt lat="44.47474" lon="6.71081">
        <ele>1874.23</ele>
        <time>2023-01-22T08:40:01Z</time>
      </trkpt>
      <trkpt lat="44.47479" lon="6.71078">
        <ele>1877.11</ele>
        <time>2023-01-22T08:40:13Z</time>
      </trkpt>
      <trkpt lat="44.47487" lon="6.71069">
        <ele>1878.07</ele>
        <time>2023-01-22T08:40:28Z</time>
      </trkpt>
      <trkpt lat="44.47491" lon="6.71066">
        <ele>1880.48</ele>
        <time>2023-01-22T08:40:40Z</time>
      </trkpt>
      <trkpt lat="44.47499" lon="6.71055">
        <ele>1881.92</ele>
        <time>2023-01-22T08:40:55Z</time>
      </trkpt>
      <trkpt lat="44.47497" lon="6.71048">
        <ele>1884.8</ele>
        <time>2023-01-22T08:41:07Z</time>
      </trkpt>
      <trkpt lat="44.47494" lon="6.71038">
        <ele>1886.24</ele>
        <time>2023-01-22T08:41:20Z</time>
      </trkpt>
      <trkpt lat="44.47491" lon="6.71033">
        <ele>1886.24</ele>
        <time>2023-01-22T08:41:28Z</time>
      </trkpt>
      <trkpt lat="44.47483" lon="6.71028">
        <ele>1887.69</ele>
        <time>2023-01-22T08:41:41Z</time>
      </trkpt>
      <trkpt lat="44.47475" lon="6.71022">
        <ele>1889.61</ele>
        <time>2023-01-22T08:41:54Z</time>
      </trkpt>
      <trkpt lat="44.4747" lon="6.71024">
        <ele>1890.09</ele>
        <time>2023-01-22T08:42:03Z</time>
      </trkpt>
      <trkpt lat="44.47462" lon="6.71024">
        <ele>1891.53</ele>
        <time>2023-01-22T08:42:16Z</time>
      </trkpt>
      <trkpt lat="44.47454" lon="6.71023">
        <ele>1894.42</ele>
        <time>2023-01-22T08:42:29Z</time>
      </trkpt>
      <trkpt lat="44.47447" lon="6.7102">
        <ele>1896.82</ele>
        <time>2023-01-22T08:42:42Z</time>
      </trkpt>
      <trkpt lat="44.47439" lon="6.71017">
        <ele>1899.7</ele>
        <time>2023-01-22T08:42:58Z</time>
      </trkpt>
      <trkpt lat="44.47432" lon="6.71013">
        <ele>1902.11</ele>
        <time>2023-01-22T08:43:14Z</time>
      </trkpt>
      <trkpt lat="44.47428" lon="6.71011">
        <ele>1902.59</ele>
        <time>2023-01-22T08:43:19Z</time>
      </trkpt>
      <trkpt lat="44.47422" lon="6.71007">
        <ele>1903.07</ele>
        <time>2023-01-22T08:43:30Z</time>
      </trkpt>
      <trkpt lat="44.47416" lon="6.71003">
        <ele>1904.99</ele>
        <time>2023-01-22T08:43:42Z</time>
      </trkpt>
      <trkpt lat="44.47415" lon="6.70998">
        <ele>1906.43</ele>
        <time>2023-01-22T08:43:52Z</time>
      </trkpt>
      <trkpt lat="44.4742" lon="6.70993">
        <ele>1909.32</ele>
        <time>2023-01-22T08:44:06Z</time>
      </trkpt>
      <trkpt lat="44.47424" lon="6.7099">
        <ele>1911.72</ele>
        <time>2023-01-22T08:44:14Z</time>
      </trkpt>
      <trkpt lat="44.47433" lon="6.70982">
        <ele>1913.64</ele>
        <time>2023-01-22T08:44:28Z</time>
      </trkpt>
      <trkpt lat="44.47437" lon="6.70974">
        <ele>1915.08</ele>
        <time>2023-01-22T08:44:41Z</time>
      </trkpt>
      <trkpt lat="44.4743" lon="6.70965">
        <ele>1917.97</ele>
        <time>2023-01-22T08:44:54Z</time>
      </trkpt>
      <trkpt lat="44.47424" lon="6.7096">
        <ele>1918.93</ele>
        <time>2023-01-22T08:45:05Z</time>
      </trkpt>
      <trkpt lat="44.47428" lon="6.70949">
        <ele>1919.89</ele>
        <time>2023-01-22T08:45:19Z</time>
      </trkpt>
      <trkpt lat="44.47432" lon="6.70944">
        <ele>1921.33</ele>
        <time>2023-01-22T08:45:32Z</time>
      </trkpt>
      <trkpt lat="44.47431" lon="6.70938">
        <ele>1923.74</ele>
        <time>2023-01-22T08:45:42Z</time>
      </trkpt>
      <trkpt lat="44.47425" lon="6.70927">
        <ele>1926.14</ele>
        <time>2023-01-22T08:45:57Z</time>
      </trkpt>
      <trkpt lat="44.47428" lon="6.70917">
        <ele>1930.46</ele>
        <time>2023-01-22T08:46:12Z</time>
      </trkpt>
      <trkpt lat="44.4743" lon="6.7091">
        <ele>1933.35</ele>
        <time>2023-01-22T08:46:25Z</time>
      </trkpt>
      <trkpt lat="44.47431" lon="6.70906">
        <ele>1934.31</ele>
        <time>2023-01-22T08:46:30Z</time>
      </trkpt>
      <trkpt lat="44.47433" lon="6.70899">
        <ele>1934.79</ele>
        <time>2023-01-22T08:46:41Z</time>
      </trkpt>
      <trkpt lat="44.47432" lon="6.70899">
        <ele>1935.75</ele>
        <time>2023-01-22T08:46:44Z</time>
      </trkpt>
      <trkpt lat="44.47422" lon="6.70893">
        <ele>1936.23</ele>
        <time>2023-01-22T08:46:59Z</time>
      </trkpt>
      <trkpt lat="44.47416" lon="6.70888">
        <ele>1937.67</ele>
        <time>2023-01-22T08:47:12Z</time>
      </trkpt>
      <trkpt lat="44.47417" lon="6.70879">
        <ele>1940.56</ele>
        <time>2023-01-22T08:47:25Z</time>
      </trkpt>
      <trkpt lat="44.47421" lon="6.70869">
        <ele>1941.52</ele>
        <time>2023-01-22T08:47:39Z</time>
      </trkpt>
      <trkpt lat="44.47419" lon="6.70866">
        <ele>1939.6</ele>
        <time>2023-01-22T08:47:52Z</time>
      </trkpt>
      <trkpt lat="44.47417" lon="6.70863">
        <ele>1941.04</ele>
        <time>2023-01-22T08:48:06Z</time>
      </trkpt>
      <trkpt lat="44.47417" lon="6.70862">
        <ele>1942</ele>
        <time>2023-01-22T08:48:18Z</time>
      </trkpt>
      <trkpt lat="44.47418" lon="6.70859">
        <ele>1944.88</ele>
        <time>2023-01-22T08:48:41Z</time>
      </trkpt>
      <trkpt lat="44.47418" lon="6.70851">
        <ele>1944.88</ele>
        <time>2023-01-22T08:48:49Z</time>
      </trkpt>
      <trkpt lat="44.4741" lon="6.70846">
        <ele>1943.92</ele>
        <time>2023-01-22T08:49:02Z</time>
      </trkpt>
      <trkpt lat="44.47408" lon="6.70845">
        <ele>1943.92</ele>
        <time>2023-01-22T08:49:04Z</time>
      </trkpt>
      <trkpt lat="44.47401" lon="6.70841">
        <ele>1944.4</ele>
        <time>2023-01-22T08:49:16Z</time>
      </trkpt>
      <trkpt lat="44.47397" lon="6.70833">
        <ele>1945.85</ele>
        <time>2023-01-22T08:49:28Z</time>
      </trkpt>
      <trkpt lat="44.47397" lon="6.70824">
        <ele>1946.33</ele>
        <time>2023-01-22T08:49:40Z</time>
      </trkpt>
      <trkpt lat="44.47398" lon="6.7082">
        <ele>1946.33</ele>
        <time>2023-01-22T08:49:43Z</time>
      </trkpt>
      <trkpt lat="44.47397" lon="6.70807">
        <ele>1950.17</ele>
        <time>2023-01-22T08:49:55Z</time>
      </trkpt>
      <trkpt lat="44.47392" lon="6.70798">
        <ele>1954.5</ele>
        <time>2023-01-22T08:50:09Z</time>
      </trkpt>
      <trkpt lat="44.47393" lon="6.70795">
        <ele>1952.57</ele>
        <time>2023-01-22T08:50:21Z</time>
      </trkpt>
      <trkpt lat="44.47397" lon="6.70783">
        <ele>1954.98</ele>
        <time>2023-01-22T08:50:34Z</time>
      </trkpt>
      <trkpt lat="44.47399" lon="6.7078">
        <ele>1958.34</ele>
        <time>2023-01-22T08:50:46Z</time>
      </trkpt>
      <trkpt lat="44.47399" lon="6.7077">
        <ele>1963.15</ele>
        <time>2023-01-22T08:50:59Z</time>
      </trkpt>
      <trkpt lat="44.47394" lon="6.70768">
        <ele>1963.63</ele>
        <time>2023-01-22T08:51:05Z</time>
      </trkpt>
      <trkpt lat="44.47385" lon="6.70772">
        <ele>1964.59</ele>
        <time>2023-01-22T08:51:18Z</time>
      </trkpt>
      <trkpt lat="44.47377" lon="6.70776">
        <ele>1967.48</ele>
        <time>2023-01-22T08:51:32Z</time>
      </trkpt>
      <trkpt lat="44.47376" lon="6.70767">
        <ele>1970.84</ele>
        <time>2023-01-22T08:51:46Z</time>
      </trkpt>
      <trkpt lat="44.47374" lon="6.70761">
        <ele>1971.8</ele>
        <time>2023-01-22T08:51:56Z</time>
      </trkpt>
      <trkpt lat="44.47365" lon="6.70767">
        <ele>1975.65</ele>
        <time>2023-01-22T08:52:11Z</time>
      </trkpt>
      <trkpt lat="44.47356" lon="6.70772">
        <ele>1978.53</ele>
        <time>2023-01-22T08:52:24Z</time>
      </trkpt>
      <trkpt lat="44.4735" lon="6.70774">
        <ele>1982.86</ele>
        <time>2023-01-22T08:52:37Z</time>
      </trkpt>
      <trkpt lat="44.47343" lon="6.70768">
        <ele>1986.22</ele>
        <time>2023-01-22T08:52:51Z</time>
      </trkpt>
      <trkpt lat="44.47337" lon="6.70768">
        <ele>1988.62</ele>
        <time>2023-01-22T08:53:03Z</time>
      </trkpt>
      <trkpt lat="44.47332" lon="6.70764">
        <ele>1991.03</ele>
        <time>2023-01-22T08:53:23Z</time>
      </trkpt>
      <trkpt lat="44.47333" lon="6.70755">
        <ele>1992.95</ele>
        <time>2023-01-22T08:53:33Z</time>
      </trkpt>
      <trkpt lat="44.47335" lon="6.70743">
        <ele>1995.35</ele>
        <time>2023-01-22T08:53:49Z</time>
      </trkpt>
      <trkpt lat="44.47334" lon="6.70733">
        <ele>1996.32</ele>
        <time>2023-01-22T08:54:00Z</time>
      </trkpt>
      <trkpt lat="44.47333" lon="6.70725">
        <ele>1997.28</ele>
        <time>2023-01-22T08:54:11Z</time>
      </trkpt>
      <trkpt lat="44.4733" lon="6.70727">
        <ele>1998.24</ele>
        <time>2023-01-22T08:54:16Z</time>
      </trkpt>
      <trkpt lat="44.47322" lon="6.7073">
        <ele>1999.68</ele>
        <time>2023-01-22T08:54:28Z</time>
      </trkpt>
      <trkpt lat="44.47312" lon="6.7073">
        <ele>2003.52</ele>
        <time>2023-01-22T08:54:48Z</time>
      </trkpt>
      <trkpt lat="44.47306" lon="6.70731">
        <ele>2004.49</ele>
        <time>2023-01-22T08:55:01Z</time>
      </trkpt>
      <trkpt lat="44.47303" lon="6.70723">
        <ele>2005.45</ele>
        <time>2023-01-22T08:55:15Z</time>
      </trkpt>
      <trkpt lat="44.47296" lon="6.70722">
        <ele>2005.93</ele>
        <time>2023-01-22T08:55:27Z</time>
      </trkpt>
      <trkpt lat="44.47296" lon="6.70719">
        <ele>2007.85</ele>
        <time>2023-01-22T08:55:40Z</time>
      </trkpt>
      <trkpt lat="44.473" lon="6.70714">
        <ele>2010.25</ele>
        <time>2023-01-22T08:55:49Z</time>
      </trkpt>
      <trkpt lat="44.47304" lon="6.70705">
        <ele>2011.7</ele>
        <time>2023-01-22T08:56:01Z</time>
      </trkpt>
      <trkpt lat="44.47306" lon="6.70696">
        <ele>2015.06</ele>
        <time>2023-01-22T08:56:15Z</time>
      </trkpt>
      <trkpt lat="44.4731" lon="6.70685">
        <ele>2017.94</ele>
        <time>2023-01-22T08:56:29Z</time>
      </trkpt>
      <trkpt lat="44.47315" lon="6.70684">
        <ele>2019.39</ele>
        <time>2023-01-22T08:56:41Z</time>
      </trkpt>
      <trkpt lat="44.47319" lon="6.70681">
        <ele>2019.39</ele>
        <time>2023-01-22T08:56:52Z</time>
      </trkpt>
      <trkpt lat="44.47317" lon="6.70675">
        <ele>2021.31</ele>
        <time>2023-01-22T08:57:03Z</time>
      </trkpt>
      <trkpt lat="44.47312" lon="6.70669">
        <ele>2023.23</ele>
        <time>2023-01-22T08:57:16Z</time>
      </trkpt>
      <trkpt lat="44.47307" lon="6.70665">
        <ele>2026.12</ele>
        <time>2023-01-22T08:57:28Z</time>
      </trkpt>
      <trkpt lat="44.47299" lon="6.70659">
        <ele>2027.08</ele>
        <time>2023-01-22T08:57:41Z</time>
      </trkpt>
      <trkpt lat="44.47294" lon="6.70658">
        <ele>2030.44</ele>
        <time>2023-01-22T08:57:53Z</time>
      </trkpt>
      <trkpt lat="44.47293" lon="6.70658">
        <ele>2030.92</ele>
        <time>2023-01-22T08:57:54Z</time>
      </trkpt>
      <trkpt lat="44.47287" lon="6.70664">
        <ele>2031.4</ele>
        <time>2023-01-22T08:58:04Z</time>
      </trkpt>
      <trkpt lat="44.4728" lon="6.70671">
        <ele>2032.36</ele>
        <time>2023-01-22T08:58:18Z</time>
      </trkpt>
      <trkpt lat="44.47276" lon="6.70675">
        <ele>2032.84</ele>
        <time>2023-01-22T08:58:31Z</time>
      </trkpt>
      <trkpt lat="44.47273" lon="6.70678">
        <ele>2030.92</ele>
        <time>2023-01-22T08:58:45Z</time>
      </trkpt>
      <trkpt lat="44.47268" lon="6.7068">
        <ele>2031.4</ele>
        <time>2023-01-22T08:58:57Z</time>
      </trkpt>
      <trkpt lat="44.47264" lon="6.70679">
        <ele>2033.81</ele>
        <time>2023-01-22T08:59:08Z</time>
      </trkpt>
      <trkpt lat="44.4726" lon="6.70678">
        <ele>2035.25</ele>
        <time>2023-01-22T08:59:22Z</time>
      </trkpt>
      <trkpt lat="44.47264" lon="6.70673">
        <ele>2036.69</ele>
        <time>2023-01-22T08:59:32Z</time>
      </trkpt>
      <trkpt lat="44.47264" lon="6.70672">
        <ele>2036.69</ele>
        <time>2023-01-22T08:59:33Z</time>
      </trkpt>
      <trkpt lat="44.47265" lon="6.7066">
        <ele>2040.05</ele>
        <time>2023-01-22T08:59:46Z</time>
      </trkpt>
      <trkpt lat="44.47255" lon="6.70656">
        <ele>2042.94</ele>
        <time>2023-01-22T08:59:58Z</time>
      </trkpt>
      <trkpt lat="44.47247" lon="6.70651">
        <ele>2044.38</ele>
        <time>2023-01-22T09:00:12Z</time>
      </trkpt>
      <trkpt lat="44.47245" lon="6.70646">
        <ele>2045.82</ele>
        <time>2023-01-22T09:00:22Z</time>
      </trkpt>
      <trkpt lat="44.47243" lon="6.70639">
        <ele>2049.19</ele>
        <time>2023-01-22T09:00:37Z</time>
      </trkpt>
      <trkpt lat="44.47236" lon="6.70639">
        <ele>2047.75</ele>
        <time>2023-01-22T09:00:47Z</time>
      </trkpt>
      <trkpt lat="44.47231" lon="6.70646">
        <ele>2048.71</ele>
        <time>2023-01-22T09:00:59Z</time>
      </trkpt>
      <trkpt lat="44.47227" lon="6.7065">
        <ele>2049.19</ele>
        <time>2023-01-22T09:01:10Z</time>
      </trkpt>
      <trkpt lat="44.47226" lon="6.7065">
        <ele>2049.19</ele>
        <time>2023-01-22T09:01:11Z</time>
      </trkpt>
      <trkpt lat="44.47221" lon="6.7065">
        <ele>2049.19</ele>
        <time>2023-01-22T09:01:19Z</time>
      </trkpt>
      <trkpt lat="44.47217" lon="6.70648">
        <ele>2049.67</ele>
        <time>2023-01-22T09:01:27Z</time>
      </trkpt>
      <trkpt lat="44.47212" lon="6.70649">
        <ele>2050.63</ele>
        <time>2023-01-22T09:01:38Z</time>
      </trkpt>
      <trkpt lat="44.47206" lon="6.70646">
        <ele>2052.07</ele>
        <time>2023-01-22T09:01:50Z</time>
      </trkpt>
      <trkpt lat="44.47202" lon="6.70641">
        <ele>2060.24</ele>
        <time>2023-01-22T09:02:08Z</time>
      </trkpt>
      <trkpt lat="44.47194" lon="6.70635">
        <ele>2064.09</ele>
        <time>2023-01-22T09:02:22Z</time>
      </trkpt>
      <trkpt lat="44.47186" lon="6.70632">
        <ele>2066.01</ele>
        <time>2023-01-22T09:02:34Z</time>
      </trkpt>
      <trkpt lat="44.47181" lon="6.70631">
        <ele>2067.93</ele>
        <time>2023-01-22T09:02:48Z</time>
      </trkpt>
      <trkpt lat="44.47172" lon="6.70625">
        <ele>2073.7</ele>
        <time>2023-01-22T09:03:08Z</time>
      </trkpt>
      <trkpt lat="44.47162" lon="6.70614">
        <ele>2073.7</ele>
        <time>2023-01-22T09:03:25Z</time>
      </trkpt>
      <trkpt lat="44.47157" lon="6.70608">
        <ele>2074.66</ele>
        <time>2023-01-22T09:03:40Z</time>
      </trkpt>
      <trkpt lat="44.47158" lon="6.70599">
        <ele>2075.14</ele>
        <time>2023-01-22T09:03:54Z</time>
      </trkpt>
      <trkpt lat="44.47162" lon="6.7059">
        <ele>2076.1</ele>
        <time>2023-01-22T09:04:08Z</time>
      </trkpt>
      <trkpt lat="44.47167" lon="6.70585">
        <ele>2074.66</ele>
        <time>2023-01-22T09:04:22Z</time>
      </trkpt>
      <trkpt lat="44.47168" lon="6.70577">
        <ele>2078.51</ele>
        <time>2023-01-22T09:04:39Z</time>
      </trkpt>
      <trkpt lat="44.47166" lon="6.70565">
        <ele>2080.91</ele>
        <time>2023-01-22T09:04:54Z</time>
      </trkpt>
      <trkpt lat="44.47162" lon="6.70563">
        <ele>2082.35</ele>
        <time>2023-01-22T09:05:04Z</time>
      </trkpt>
      <trkpt lat="44.47154" lon="6.70561">
        <ele>2083.79</ele>
        <time>2023-01-22T09:05:16Z</time>
      </trkpt>
      <trkpt lat="44.47154" lon="6.70558">
        <ele>2084.76</ele>
        <time>2023-01-22T09:05:25Z</time>
      </trkpt>
      <trkpt lat="44.47157" lon="6.70551">
        <ele>2086.68</ele>
        <time>2023-01-22T09:05:38Z</time>
      </trkpt>
      <trkpt lat="44.47157" lon="6.7054">
        <ele>2088.12</ele>
        <time>2023-01-22T09:05:49Z</time>
      </trkpt>
      <trkpt lat="44.47159" lon="6.70532">
        <ele>2088.6</ele>
        <time>2023-01-22T09:06:00Z</time>
      </trkpt>
      <trkpt lat="44.47162" lon="6.70529">
        <ele>2089.08</ele>
        <time>2023-01-22T09:06:15Z</time>
      </trkpt>
      <trkpt lat="44.47164" lon="6.70525">
        <ele>2091.97</ele>
        <time>2023-01-22T09:06:28Z</time>
      </trkpt>
      <trkpt lat="44.4717" lon="6.70518">
        <ele>2092.45</ele>
        <time>2023-01-22T09:06:38Z</time>
      </trkpt>
      <trkpt lat="44.47175" lon="6.70508">
        <ele>2093.41</ele>
        <time>2023-01-22T09:06:52Z</time>
      </trkpt>
      <trkpt lat="44.47175" lon="6.70494">
        <ele>2095.81</ele>
        <time>2023-01-22T09:07:08Z</time>
      </trkpt>
      <trkpt lat="44.47177" lon="6.70481">
        <ele>2096.29</ele>
        <time>2023-01-22T09:07:22Z</time>
      </trkpt>
      <trkpt lat="44.4718" lon="6.70472">
        <ele>2096.29</ele>
        <time>2023-01-22T09:07:34Z</time>
      </trkpt>
      <trkpt lat="44.47184" lon="6.70467">
        <ele>2099.18</ele>
        <time>2023-01-22T09:07:46Z</time>
      </trkpt>
      <trkpt lat="44.47188" lon="6.7046">
        <ele>2103.5</ele>
        <time>2023-01-22T09:08:01Z</time>
      </trkpt>
      <trkpt lat="44.47188" lon="6.70459">
        <ele>2103.98</ele>
        <time>2023-01-22T09:08:02Z</time>
      </trkpt>
      <trkpt lat="44.47193" lon="6.70455">
        <ele>2105.42</ele>
        <time>2023-01-22T09:08:15Z</time>
      </trkpt>
      <trkpt lat="44.472" lon="6.70453">
        <ele>2105.42</ele>
        <time>2023-01-22T09:08:28Z</time>
      </trkpt>
      <trkpt lat="44.47208" lon="6.70446">
        <ele>2106.87</ele>
        <time>2023-01-22T09:08:41Z</time>
      </trkpt>
      <trkpt lat="44.47215" lon="6.70439">
        <ele>2106.87</ele>
        <time>2023-01-22T09:08:53Z</time>
      </trkpt>
      <trkpt lat="44.47219" lon="6.70431">
        <ele>2109.27</ele>
        <time>2023-01-22T09:09:07Z</time>
      </trkpt>
      <trkpt lat="44.47223" lon="6.70416">
        <ele>2110.71</ele>
        <time>2023-01-22T09:09:24Z</time>
      </trkpt>
      <trkpt lat="44.47227" lon="6.70408">
        <ele>2112.15</ele>
        <time>2023-01-22T09:09:37Z</time>
      </trkpt>
      <trkpt lat="44.4723" lon="6.70397">
        <ele>2115.04</ele>
        <time>2023-01-22T09:09:51Z</time>
      </trkpt>
      <trkpt lat="44.47235" lon="6.70387">
        <ele>2117.92</ele>
        <time>2023-01-22T09:10:05Z</time>
      </trkpt>
      <trkpt lat="44.47238" lon="6.70381">
        <ele>2120.81</ele>
        <time>2023-01-22T09:10:20Z</time>
      </trkpt>
      <trkpt lat="44.47243" lon="6.70373">
        <ele>2121.29</ele>
        <time>2023-01-22T09:10:40Z</time>
      </trkpt>
      <trkpt lat="44.47244" lon="6.70368">
        <ele>2120.81</ele>
        <time>2023-01-22T09:10:52Z</time>
      </trkpt>
      <trkpt lat="44.47245" lon="6.7036">
        <ele>2121.29</ele>
        <time>2023-01-22T09:11:06Z</time>
      </trkpt>
      <trkpt lat="44.4724" lon="6.70349">
        <ele>2121.29</ele>
        <time>2023-01-22T09:11:20Z</time>
      </trkpt>
      <trkpt lat="44.47231" lon="6.7035">
        <ele>2122.25</ele>
        <time>2023-01-22T09:11:34Z</time>
      </trkpt>
      <trkpt lat="44.47226" lon="6.70351">
        <ele>2122.73</ele>
        <time>2023-01-22T09:11:46Z</time>
      </trkpt>
      <trkpt lat="44.47219" lon="6.70353">
        <ele>2125.13</ele>
        <time>2023-01-22T09:12:03Z</time>
      </trkpt>
      <trkpt lat="44.47209" lon="6.70355">
        <ele>2128.02</ele>
        <time>2023-01-22T09:12:17Z</time>
      </trkpt>
      <trkpt lat="44.47201" lon="6.70357">
        <ele>2129.46</ele>
        <time>2023-01-22T09:12:29Z</time>
      </trkpt>
      <trkpt lat="44.47192" lon="6.70354">
        <ele>2128.98</ele>
        <time>2023-01-22T09:12:43Z</time>
      </trkpt>
      <trkpt lat="44.47196" lon="6.70348">
        <ele>2128.5</ele>
        <time>2023-01-22T09:12:57Z</time>
      </trkpt>
      <trkpt lat="44.47198" lon="6.70338">
        <ele>2132.82</ele>
        <time>2023-01-22T09:13:11Z</time>
      </trkpt>
      <trkpt lat="44.47198" lon="6.70327">
        <ele>2135.71</ele>
        <time>2023-01-22T09:13:26Z</time>
      </trkpt>
      <trkpt lat="44.47193" lon="6.70325">
        <ele>2137.63</ele>
        <time>2023-01-22T09:13:36Z</time>
      </trkpt>
      <trkpt lat="44.47187" lon="6.70325">
        <ele>2139.55</ele>
        <time>2023-01-22T09:13:45Z</time>
      </trkpt>
      <trkpt lat="44.47182" lon="6.70321">
        <ele>2140.99</ele>
        <time>2023-01-22T09:14:00Z</time>
      </trkpt>
      <trkpt lat="44.47176" lon="6.70322">
        <ele>2144.36</ele>
        <time>2023-01-22T09:14:15Z</time>
      </trkpt>
      <trkpt lat="44.47174" lon="6.70315">
        <ele>2148.68</ele>
        <time>2023-01-22T09:14:31Z</time>
      </trkpt>
      <trkpt lat="44.47173" lon="6.70303">
        <ele>2153.01</ele>
        <time>2023-01-22T09:14:49Z</time>
      </trkpt>
      <trkpt lat="44.47167" lon="6.70296">
        <ele>2157.34</ele>
        <time>2023-01-22T09:15:02Z</time>
      </trkpt>
      <trkpt lat="44.47162" lon="6.70286">
        <ele>2158.78</ele>
        <time>2023-01-22T09:15:20Z</time>
      </trkpt>
      <trkpt lat="44.47161" lon="6.70276">
        <ele>2159.26</ele>
        <time>2023-01-22T09:15:33Z</time>
      </trkpt>
      <trkpt lat="44.47158" lon="6.70268">
        <ele>2160.7</ele>
        <time>2023-01-22T09:15:48Z</time>
      </trkpt>
      <trkpt lat="44.4715" lon="6.70263">
        <ele>2162.14</ele>
        <time>2023-01-22T09:15:59Z</time>
      </trkpt>
      <trkpt lat="44.47145" lon="6.70257">
        <ele>2163.58</ele>
        <time>2023-01-22T09:16:12Z</time>
      </trkpt>
      <trkpt lat="44.47145" lon="6.70248">
        <ele>2162.14</ele>
        <time>2023-01-22T09:16:28Z</time>
      </trkpt>
      <trkpt lat="44.47147" lon="6.7024">
        <ele>2165.03</ele>
        <time>2023-01-22T09:16:40Z</time>
      </trkpt>
      <trkpt lat="44.4715" lon="6.70239">
        <ele>2164.06</ele>
        <time>2023-01-22T09:16:56Z</time>
      </trkpt>
      <trkpt lat="44.47149" lon="6.70236">
        <ele>2164.55</ele>
        <time>2023-01-22T09:17:06Z</time>
      </trkpt>
      <trkpt lat="44.4715" lon="6.70235">
        <ele>2161.18</ele>
        <time>2023-01-22T09:17:18Z</time>
      </trkpt>
      <trkpt lat="44.47148" lon="6.70237">
        <ele>2159.26</ele>
        <time>2023-01-22T09:17:46Z</time>
      </trkpt>
      <trkpt lat="44.4715" lon="6.70235">
        <ele>2161.66</ele>
        <time>2023-01-22T09:18:11Z</time>
      </trkpt>
      <trkpt lat="44.47145" lon="6.70236">
        <ele>2164.55</ele>
        <time>2023-01-22T09:18:35Z</time>
      </trkpt>
      <trkpt lat="44.47145" lon="6.70238">
        <ele>2168.39</ele>
        <time>2023-01-22T09:19:11Z</time>
      </trkpt>
      <trkpt lat="44.47149" lon="6.70238">
        <ele>2161.66</ele>
        <time>2023-01-22T09:19:33Z</time>
      </trkpt>
      <trkpt lat="44.47149" lon="6.70237">
        <ele>2163.58</ele>
        <time>2023-01-22T09:19:47Z</time>
      </trkpt>
      <trkpt lat="44.47148" lon="6.70237">
        <ele>2164.55</ele>
        <time>2023-01-22T09:20:04Z</time>
      </trkpt>
      <trkpt lat="44.47148" lon="6.70237">
        <ele>2166.47</ele>
        <time>2023-01-22T09:20:19Z</time>
      </trkpt>
      <trkpt lat="44.47147" lon="6.70225">
        <ele>2167.43</ele>
        <time>2023-01-22T09:20:35Z</time>
      </trkpt>
      <trkpt lat="44.47145" lon="6.70215">
        <ele>2169.83</ele>
        <time>2023-01-22T09:20:49Z</time>
      </trkpt>
      <trkpt lat="44.47144" lon="6.70205">
        <ele>2171.27</ele>
        <time>2023-01-22T09:21:04Z</time>
      </trkpt>
      <trkpt lat="44.47138" lon="6.70202">
        <ele>2174.16</ele>
        <time>2023-01-22T09:21:17Z</time>
      </trkpt>
      <trkpt lat="44.47132" lon="6.70202">
        <ele>2175.6</ele>
        <time>2023-01-22T09:21:28Z</time>
      </trkpt>
      <trkpt lat="44.47128" lon="6.70205">
        <ele>2178.48</ele>
        <time>2023-01-22T09:21:39Z</time>
      </trkpt>
      <trkpt lat="44.47125" lon="6.70209">
        <ele>2178.97</ele>
        <time>2023-01-22T09:21:51Z</time>
      </trkpt>
      <trkpt lat="44.47118" lon="6.70218">
        <ele>2179.45</ele>
        <time>2023-01-22T09:22:07Z</time>
      </trkpt>
      <trkpt lat="44.47112" lon="6.70221">
        <ele>2178.97</ele>
        <time>2023-01-22T09:22:19Z</time>
      </trkpt>
      <trkpt lat="44.47104" lon="6.70225">
        <ele>2179.45</ele>
        <time>2023-01-22T09:22:35Z</time>
      </trkpt>
      <trkpt lat="44.471" lon="6.70225">
        <ele>2180.89</ele>
        <time>2023-01-22T09:22:47Z</time>
      </trkpt>
      <trkpt lat="44.47095" lon="6.7022">
        <ele>2183.29</ele>
        <time>2023-01-22T09:23:04Z</time>
      </trkpt>
      <trkpt lat="44.4709" lon="6.70216">
        <ele>2188.58</ele>
        <time>2023-01-22T09:23:19Z</time>
      </trkpt>
      <trkpt lat="44.47089" lon="6.70215">
        <ele>2188.1</ele>
        <time>2023-01-22T09:23:21Z</time>
      </trkpt>
      <trkpt lat="44.47091" lon="6.70208">
        <ele>2188.58</ele>
        <time>2023-01-22T09:23:31Z</time>
      </trkpt>
      <trkpt lat="44.47094" lon="6.70203">
        <ele>2188.58</ele>
        <time>2023-01-22T09:23:45Z</time>
      </trkpt>
      <trkpt lat="44.47095" lon="6.70199">
        <ele>2190.02</ele>
        <time>2023-01-22T09:23:55Z</time>
      </trkpt>
      <trkpt lat="44.47092" lon="6.70201">
        <ele>2190.98</ele>
        <time>2023-01-22T09:24:07Z</time>
      </trkpt>
      <trkpt lat="44.47087" lon="6.70199">
        <ele>2194.35</ele>
        <time>2023-01-22T09:24:20Z</time>
      </trkpt>
      <trkpt lat="44.4709" lon="6.70192">
        <ele>2195.79</ele>
        <time>2023-01-22T09:24:32Z</time>
      </trkpt>
      <trkpt lat="44.47092" lon="6.7019">
        <ele>2196.75</ele>
        <time>2023-01-22T09:24:45Z</time>
      </trkpt>
      <trkpt lat="44.47092" lon="6.70185">
        <ele>2198.67</ele>
        <time>2023-01-22T09:25:00Z</time>
      </trkpt>
      <trkpt lat="44.47093" lon="6.70183">
        <ele>2199.15</ele>
        <time>2023-01-22T09:25:04Z</time>
      </trkpt>
      <trkpt lat="44.47095" lon="6.70173">
        <ele>2202.04</ele>
        <time>2023-01-22T09:25:17Z</time>
      </trkpt>
      <trkpt lat="44.47095" lon="6.70163">
        <ele>2204.44</ele>
        <time>2023-01-22T09:25:33Z</time>
      </trkpt>
      <trkpt lat="44.47094" lon="6.7016">
        <ele>2205.88</ele>
        <time>2023-01-22T09:25:39Z</time>
      </trkpt>
      <trkpt lat="44.47095" lon="6.70152">
        <ele>2209.25</ele>
        <time>2023-01-22T09:25:54Z</time>
      </trkpt>
      <trkpt lat="44.47092" lon="6.70145">
        <ele>2211.17</ele>
        <time>2023-01-22T09:26:06Z</time>
      </trkpt>
      <trkpt lat="44.47089" lon="6.70138">
        <ele>2212.61</ele>
        <time>2023-01-22T09:26:19Z</time>
      </trkpt>
      <trkpt lat="44.47085" lon="6.70136">
        <ele>2214.53</ele>
        <time>2023-01-22T09:26:30Z</time>
      </trkpt>
      <trkpt lat="44.47078" lon="6.70139">
        <ele>2217.42</ele>
        <time>2023-01-22T09:26:42Z</time>
      </trkpt>
      <trkpt lat="44.47076" lon="6.70138">
        <ele>2218.38</ele>
        <time>2023-01-22T09:26:56Z</time>
      </trkpt>
      <trkpt lat="44.47073" lon="6.70128">
        <ele>2216.46</ele>
        <time>2023-01-22T09:27:12Z</time>
      </trkpt>
      <trkpt lat="44.4707" lon="6.70123">
        <ele>2219.82</ele>
        <time>2023-01-22T09:27:26Z</time>
      </trkpt>
      <trkpt lat="44.47067" lon="6.70129">
        <ele>2219.82</ele>
        <time>2023-01-22T09:27:41Z</time>
      </trkpt>
      <trkpt lat="44.47063" lon="6.70134">
        <ele>2217.9</ele>
        <time>2023-01-22T09:27:55Z</time>
      </trkpt>
      <trkpt lat="44.47057" lon="6.70139">
        <ele>2215.98</ele>
        <time>2023-01-22T09:28:10Z</time>
      </trkpt>
      <trkpt lat="44.47053" lon="6.70143">
        <ele>2215.98</ele>
        <time>2023-01-22T09:28:20Z</time>
      </trkpt>
      <trkpt lat="44.47052" lon="6.70139">
        <ele>2215.98</ele>
        <time>2023-01-22T09:28:33Z</time>
      </trkpt>
      <trkpt lat="44.47046" lon="6.7014">
        <ele>2217.42</ele>
        <time>2023-01-22T09:28:45Z</time>
      </trkpt>
      <trkpt lat="44.47041" lon="6.7014">
        <ele>2220.3</ele>
        <time>2023-01-22T09:29:01Z</time>
      </trkpt>
      <trkpt lat="44.47036" lon="6.70135">
        <ele>2223.19</ele>
        <time>2023-01-22T09:29:12Z</time>
      </trkpt>
      <trkpt lat="44.47031" lon="6.7013">
        <ele>2226.07</ele>
        <time>2023-01-22T09:29:24Z</time>
      </trkpt>
      <trkpt lat="44.47031" lon="6.70125">
        <ele>2229.43</ele>
        <time>2023-01-22T09:29:36Z</time>
      </trkpt>
      <trkpt lat="44.47031" lon="6.70118">
        <ele>2231.84</ele>
        <time>2023-01-22T09:29:46Z</time>
      </trkpt>
      <trkpt lat="44.47031" lon="6.70117">
        <ele>2232.8</ele>
        <time>2023-01-22T09:29:49Z</time>
      </trkpt>
      <trkpt lat="44.47031" lon="6.70111">
        <ele>2234.24</ele>
        <time>2023-01-22T09:30:01Z</time>
      </trkpt>
      <trkpt lat="44.47027" lon="6.7011">
        <ele>2235.2</ele>
        <time>2023-01-22T09:30:11Z</time>
      </trkpt>
      <trkpt lat="44.47026" lon="6.7011">
        <ele>2235.68</ele>
        <time>2023-01-22T09:30:22Z</time>
      </trkpt>
      <trkpt lat="44.47022" lon="6.70107">
        <ele>2238.09</ele>
        <time>2023-01-22T09:30:33Z</time>
      </trkpt>
      <trkpt lat="44.47018" lon="6.70103">
        <ele>2240.49</ele>
        <time>2023-01-22T09:30:45Z</time>
      </trkpt>
      <trkpt lat="44.47012" lon="6.70099">
        <ele>2242.89</ele>
        <time>2023-01-22T09:30:56Z</time>
      </trkpt>
      <trkpt lat="44.47011" lon="6.70098">
        <ele>2242.89</ele>
        <time>2023-01-22T09:30:57Z</time>
      </trkpt>
      <trkpt lat="44.47008" lon="6.70097">
        <ele>2243.85</ele>
        <time>2023-01-22T09:31:10Z</time>
      </trkpt>
      <trkpt lat="44.47" lon="6.70094">
        <ele>2247.22</ele>
        <time>2023-01-22T09:31:26Z</time>
      </trkpt>
      <trkpt lat="44.46994" lon="6.70092">
        <ele>2250.1</ele>
        <time>2023-01-22T09:31:38Z</time>
      </trkpt>
      <trkpt lat="44.46988" lon="6.70092">
        <ele>2252.51</ele>
        <time>2023-01-22T09:31:51Z</time>
      </trkpt>
      <trkpt lat="44.46981" lon="6.70089">
        <ele>2253.47</ele>
        <time>2023-01-22T09:32:07Z</time>
      </trkpt>
      <trkpt lat="44.46974" lon="6.70087">
        <ele>2254.43</ele>
        <time>2023-01-22T09:32:19Z</time>
      </trkpt>
      <trkpt lat="44.46972" lon="6.7008">
        <ele>2255.39</ele>
        <time>2023-01-22T09:32:31Z</time>
      </trkpt>
      <trkpt lat="44.46975" lon="6.70075">
        <ele>2257.31</ele>
        <time>2023-01-22T09:32:43Z</time>
      </trkpt>
      <trkpt lat="44.46974" lon="6.70069">
        <ele>2260.2</ele>
        <time>2023-01-22T09:32:55Z</time>
      </trkpt>
      <trkpt lat="44.46972" lon="6.70063">
        <ele>2262.6</ele>
        <time>2023-01-22T09:33:13Z</time>
      </trkpt>
      <trkpt lat="44.46971" lon="6.70058">
        <ele>2262.6</ele>
        <time>2023-01-22T09:33:29Z</time>
      </trkpt>
      <trkpt lat="44.46966" lon="6.70046">
        <ele>2262.12</ele>
        <time>2023-01-22T09:33:42Z</time>
      </trkpt>
      <trkpt lat="44.46965" lon="6.7004">
        <ele>2262.6</ele>
        <time>2023-01-22T09:33:49Z</time>
      </trkpt>
      <trkpt lat="44.46965" lon="6.7003">
        <ele>2264.52</ele>
        <time>2023-01-22T09:34:02Z</time>
      </trkpt>
      <trkpt lat="44.46965" lon="6.70015">
        <ele>2265.48</ele>
        <time>2023-01-22T09:34:16Z</time>
      </trkpt>
      <trkpt lat="44.46962" lon="6.70008">
        <ele>2266.93</ele>
        <time>2023-01-22T09:34:26Z</time>
      </trkpt>
      <trkpt lat="44.4696" lon="6.7">
        <ele>2268.85</ele>
        <time>2023-01-22T09:34:40Z</time>
      </trkpt>
      <trkpt lat="44.46959" lon="6.69994">
        <ele>2270.77</ele>
        <time>2023-01-22T09:34:52Z</time>
      </trkpt>
      <trkpt lat="44.46957" lon="6.69988">
        <ele>2273.17</ele>
        <time>2023-01-22T09:35:03Z</time>
      </trkpt>
      <trkpt lat="44.46952" lon="6.69983">
        <ele>2275.1</ele>
        <time>2023-01-22T09:35:14Z</time>
      </trkpt>
      <trkpt lat="44.46949" lon="6.69978">
        <ele>2277.02</ele>
        <time>2023-01-22T09:35:27Z</time>
      </trkpt>
      <trkpt lat="44.46946" lon="6.69972">
        <ele>2277.98</ele>
        <time>2023-01-22T09:35:38Z</time>
      </trkpt>
      <trkpt lat="44.46944" lon="6.69967">
        <ele>2279.42</ele>
        <time>2023-01-22T09:35:49Z</time>
      </trkpt>
      <trkpt lat="44.46941" lon="6.69962">
        <ele>2280.87</ele>
        <time>2023-01-22T09:36:00Z</time>
      </trkpt>
      <trkpt lat="44.4694" lon="6.69953">
        <ele>2282.31</ele>
        <time>2023-01-22T09:36:13Z</time>
      </trkpt>
      <trkpt lat="44.46939" lon="6.69952">
        <ele>2282.31</ele>
        <time>2023-01-22T09:36:15Z</time>
      </trkpt>
      <trkpt lat="44.46935" lon="6.69944">
        <ele>2284.23</ele>
        <time>2023-01-22T09:36:30Z</time>
      </trkpt>
      <trkpt lat="44.4693" lon="6.69937">
        <ele>2286.63</ele>
        <time>2023-01-22T09:36:42Z</time>
      </trkpt>
      <trkpt lat="44.46926" lon="6.69932">
        <ele>2288.08</ele>
        <time>2023-01-22T09:36:55Z</time>
      </trkpt>
      <trkpt lat="44.46923" lon="6.69927">
        <ele>2290</ele>
        <time>2023-01-22T09:37:08Z</time>
      </trkpt>
      <trkpt lat="44.4692" lon="6.69921">
        <ele>2291.44</ele>
        <time>2023-01-22T09:37:20Z</time>
      </trkpt>
      <trkpt lat="44.46916" lon="6.69916">
        <ele>2292.88</ele>
        <time>2023-01-22T09:37:32Z</time>
      </trkpt>
      <trkpt lat="44.46911" lon="6.69908">
        <ele>2296.25</ele>
        <time>2023-01-22T09:37:47Z</time>
      </trkpt>
      <trkpt lat="44.46906" lon="6.69901">
        <ele>2295.77</ele>
        <time>2023-01-22T09:37:58Z</time>
      </trkpt>
      <trkpt lat="44.469" lon="6.69893">
        <ele>2297.69</ele>
        <time>2023-01-22T09:38:13Z</time>
      </trkpt>
      <trkpt lat="44.46896" lon="6.69886">
        <ele>2299.13</ele>
        <time>2023-01-22T09:38:25Z</time>
      </trkpt>
      <trkpt lat="44.4689" lon="6.69879">
        <ele>2301.53</ele>
        <time>2023-01-22T09:38:40Z</time>
      </trkpt>
      <trkpt lat="44.46886" lon="6.69872">
        <ele>2303.46</ele>
        <time>2023-01-22T09:38:53Z</time>
      </trkpt>
      <trkpt lat="44.46883" lon="6.69865">
        <ele>2304.9</ele>
        <time>2023-01-22T09:39:06Z</time>
      </trkpt>
      <trkpt lat="44.46879" lon="6.69858">
        <ele>2305.86</ele>
        <time>2023-01-22T09:39:18Z</time>
      </trkpt>
      <trkpt lat="44.46875" lon="6.69851">
        <ele>2307.78</ele>
        <time>2023-01-22T09:39:30Z</time>
      </trkpt>
      <trkpt lat="44.46873" lon="6.69844">
        <ele>2308.74</ele>
        <time>2023-01-22T09:39:43Z</time>
      </trkpt>
      <trkpt lat="44.4687" lon="6.69838">
        <ele>2310.19</ele>
        <time>2023-01-22T09:39:54Z</time>
      </trkpt>
      <trkpt lat="44.46866" lon="6.69836">
        <ele>2311.63</ele>
        <time>2023-01-22T09:40:06Z</time>
      </trkpt>
      <trkpt lat="44.46862" lon="6.69834">
        <ele>2313.55</ele>
        <time>2023-01-22T09:40:17Z</time>
      </trkpt>
      <trkpt lat="44.46857" lon="6.69833">
        <ele>2315.47</ele>
        <time>2023-01-22T09:40:28Z</time>
      </trkpt>
      <trkpt lat="44.46852" lon="6.69832">
        <ele>2316.91</ele>
        <time>2023-01-22T09:40:40Z</time>
      </trkpt>
      <trkpt lat="44.46847" lon="6.69831">
        <ele>2318.36</ele>
        <time>2023-01-22T09:40:52Z</time>
      </trkpt>
      <trkpt lat="44.46843" lon="6.69831">
        <ele>2319.32</ele>
        <time>2023-01-22T09:41:03Z</time>
      </trkpt>
      <trkpt lat="44.46838" lon="6.69831">
        <ele>2321.24</ele>
        <time>2023-01-22T09:41:14Z</time>
      </trkpt>
      <trkpt lat="44.46834" lon="6.69831">
        <ele>2322.2</ele>
        <time>2023-01-22T09:41:26Z</time>
      </trkpt>
      <trkpt lat="44.46828" lon="6.69832">
        <ele>2323.64</ele>
        <time>2023-01-22T09:41:38Z</time>
      </trkpt>
      <trkpt lat="44.46824" lon="6.69833">
        <ele>2325.57</ele>
        <time>2023-01-22T09:41:50Z</time>
      </trkpt>
      <trkpt lat="44.46819" lon="6.69833">
        <ele>2327.49</ele>
        <time>2023-01-22T09:42:03Z</time>
      </trkpt>
      <trkpt lat="44.46818" lon="6.69829">
        <ele>2328.45</ele>
        <time>2023-01-22T09:42:19Z</time>
      </trkpt>
      <trkpt lat="44.46815" lon="6.69821">
        <ele>2330.37</ele>
        <time>2023-01-22T09:42:32Z</time>
      </trkpt>
      <trkpt lat="44.46813" lon="6.69812">
        <ele>2333.26</ele>
        <time>2023-01-22T09:42:46Z</time>
      </trkpt>
      <trkpt lat="44.46808" lon="6.69809">
        <ele>2334.7</ele>
        <time>2023-01-22T09:42:58Z</time>
      </trkpt>
      <trkpt lat="44.46805" lon="6.69805">
        <ele>2336.62</ele>
        <time>2023-01-22T09:43:10Z</time>
      </trkpt>
      <trkpt lat="44.46804" lon="6.698">
        <ele>2338.06</ele>
        <time>2023-01-22T09:43:22Z</time>
      </trkpt>
      <trkpt lat="44.46803" lon="6.69792">
        <ele>2339.02</ele>
        <time>2023-01-22T09:43:34Z</time>
      </trkpt>
      <trkpt lat="44.468" lon="6.6979">
        <ele>2340.47</ele>
        <time>2023-01-22T09:43:45Z</time>
      </trkpt>
      <trkpt lat="44.46796" lon="6.69789">
        <ele>2342.39</ele>
        <time>2023-01-22T09:43:57Z</time>
      </trkpt>
      <trkpt lat="44.46792" lon="6.69785">
        <ele>2343.35</ele>
        <time>2023-01-22T09:44:07Z</time>
      </trkpt>
      <trkpt lat="44.46789" lon="6.6978">
        <ele>2345.27</ele>
        <time>2023-01-22T09:44:19Z</time>
      </trkpt>
      <trkpt lat="44.46784" lon="6.69778">
        <ele>2347.2</ele>
        <time>2023-01-22T09:44:32Z</time>
      </trkpt>
      <trkpt lat="44.46781" lon="6.69777">
        <ele>2348.64</ele>
        <time>2023-01-22T09:44:44Z</time>
      </trkpt>
      <trkpt lat="44.4678" lon="6.69772">
        <ele>2350.08</ele>
        <time>2023-01-22T09:44:55Z</time>
      </trkpt>
      <trkpt lat="44.4678" lon="6.69765">
        <ele>2351.04</ele>
        <time>2023-01-22T09:45:06Z</time>
      </trkpt>
      <trkpt lat="44.4678" lon="6.69757">
        <ele>2352.48</ele>
        <time>2023-01-22T09:45:18Z</time>
      </trkpt>
      <trkpt lat="44.46782" lon="6.69749">
        <ele>2353.44</ele>
        <time>2023-01-22T09:45:32Z</time>
      </trkpt>
      <trkpt lat="44.46783" lon="6.69742">
        <ele>2355.37</ele>
        <time>2023-01-22T09:45:43Z</time>
      </trkpt>
      <trkpt lat="44.46782" lon="6.69734">
        <ele>2356.81</ele>
        <time>2023-01-22T09:45:55Z</time>
      </trkpt>
      <trkpt lat="44.46782" lon="6.69725">
        <ele>2358.25</ele>
        <time>2023-01-22T09:46:08Z</time>
      </trkpt>
      <trkpt lat="44.46782" lon="6.69714">
        <ele>2361.14</ele>
        <time>2023-01-22T09:46:21Z</time>
      </trkpt>
      <trkpt lat="44.46781" lon="6.69706">
        <ele>2360.65</ele>
        <time>2023-01-22T09:46:31Z</time>
      </trkpt>
      <trkpt lat="44.46782" lon="6.69696">
        <ele>2364.5</ele>
        <time>2023-01-22T09:46:49Z</time>
      </trkpt>
      <trkpt lat="44.46782" lon="6.69684">
        <ele>2365.94</ele>
        <time>2023-01-22T09:47:04Z</time>
      </trkpt>
      <trkpt lat="44.4678" lon="6.69678">
        <ele>2366.42</ele>
        <time>2023-01-22T09:47:15Z</time>
      </trkpt>
      <trkpt lat="44.46779" lon="6.6967">
        <ele>2367.38</ele>
        <time>2023-01-22T09:47:25Z</time>
      </trkpt>
      <trkpt lat="44.4678" lon="6.69664">
        <ele>2369.31</ele>
        <time>2023-01-22T09:47:38Z</time>
      </trkpt>
      <trkpt lat="44.46782" lon="6.69651">
        <ele>2373.15</ele>
        <time>2023-01-22T09:47:57Z</time>
      </trkpt>
      <trkpt lat="44.46783" lon="6.69639">
        <ele>2372.19</ele>
        <time>2023-01-22T09:48:10Z</time>
      </trkpt>
      <trkpt lat="44.46785" lon="6.69632">
        <ele>2373.63</ele>
        <time>2023-01-22T09:48:23Z</time>
      </trkpt>
      <trkpt lat="44.46788" lon="6.69625">
        <ele>2375.07</ele>
        <time>2023-01-22T09:48:35Z</time>
      </trkpt>
      <trkpt lat="44.46789" lon="6.69626">
        <ele>2376.52</ele>
        <time>2023-01-22T09:48:51Z</time>
      </trkpt>
      <trkpt lat="44.4679" lon="6.69626">
        <ele>2376.52</ele>
        <time>2023-01-22T09:49:05Z</time>
      </trkpt>
      <trkpt lat="44.46788" lon="6.69625">
        <ele>2377.48</ele>
        <time>2023-01-22T09:49:29Z</time>
      </trkpt>
      <trkpt lat="44.46789" lon="6.69627">
        <ele>2377.48</ele>
        <time>2023-01-22T09:49:53Z</time>
      </trkpt>
      <trkpt lat="44.4679" lon="6.69626">
        <ele>2377.48</ele>
        <time>2023-01-22T09:50:17Z</time>
      </trkpt>
      <trkpt lat="44.46789" lon="6.69625">
        <ele>2377</ele>
        <time>2023-01-22T09:50:42Z</time>
      </trkpt>
      <trkpt lat="44.46789" lon="6.69625">
        <ele>2377.48</ele>
        <time>2023-01-22T09:51:05Z</time>
      </trkpt>
      <trkpt lat="44.46789" lon="6.69624">
        <ele>2377</ele>
        <time>2023-01-22T09:51:27Z</time>
      </trkpt>
      <trkpt lat="44.46788" lon="6.69621">
        <ele>2377.48</ele>
        <time>2023-01-22T09:51:40Z</time>
      </trkpt>
      <trkpt lat="44.46788" lon="6.69622">
        <ele>2377.96</ele>
        <time>2023-01-22T09:52:03Z</time>
      </trkpt>
      <trkpt lat="44.4679" lon="6.69623">
        <ele>2376.52</ele>
        <time>2023-01-22T09:52:36Z</time>
      </trkpt>
      <trkpt lat="44.46789" lon="6.69621">
        <ele>2376.52</ele>
        <time>2023-01-22T09:52:43Z</time>
      </trkpt>
      <trkpt lat="44.46789" lon="6.69621">
        <ele>2377</ele>
        <time>2023-01-22T09:53:11Z</time>
      </trkpt>
      <trkpt lat="44.46788" lon="6.69623">
        <ele>2378.44</ele>
        <time>2023-01-22T09:53:43Z</time>
      </trkpt>
      <trkpt lat="44.46788" lon="6.69625">
        <ele>2375.07</ele>
        <time>2023-01-22T09:53:57Z</time>
      </trkpt>
      <trkpt lat="44.46789" lon="6.69622">
        <ele>2375.07</ele>
        <time>2023-01-22T09:54:21Z</time>
      </trkpt>
      <trkpt lat="44.46789" lon="6.69624">
        <ele>2375.55</ele>
        <time>2023-01-22T09:54:42Z</time>
      </trkpt>
      <trkpt lat="44.46788" lon="6.69623">
        <ele>2376.04</ele>
        <time>2023-01-22T09:55:12Z</time>
      </trkpt>
      <trkpt lat="44.46789" lon="6.69625">
        <ele>2376.04</ele>
        <time>2023-01-22T09:55:41Z</time>
      </trkpt>
      <trkpt lat="44.46788" lon="6.69622">
        <ele>2377.48</ele>
        <time>2023-01-22T09:55:58Z</time>
      </trkpt>
      <trkpt lat="44.46792" lon="6.69614">
        <ele>2376.52</ele>
        <time>2023-01-22T09:56:10Z</time>
      </trkpt>
      <trkpt lat="44.4679" lon="6.69603">
        <ele>2379.88</ele>
        <time>2023-01-22T09:56:23Z</time>
      </trkpt>
      <trkpt lat="44.46783" lon="6.69597">
        <ele>2381.8</ele>
        <time>2023-01-22T09:56:35Z</time>
      </trkpt>
      <trkpt lat="44.46778" lon="6.69587">
        <ele>2383.25</ele>
        <time>2023-01-22T09:56:51Z</time>
      </trkpt>
      <trkpt lat="44.46775" lon="6.69579">
        <ele>2385.65</ele>
        <time>2023-01-22T09:57:03Z</time>
      </trkpt>
      <trkpt lat="44.46773" lon="6.69572">
        <ele>2388.05</ele>
        <time>2023-01-22T09:57:15Z</time>
      </trkpt>
      <trkpt lat="44.46769" lon="6.69569">
        <ele>2389.97</ele>
        <time>2023-01-22T09:57:27Z</time>
      </trkpt>
      <trkpt lat="44.46765" lon="6.69569">
        <ele>2390.94</ele>
        <time>2023-01-22T09:57:39Z</time>
      </trkpt>
      <trkpt lat="44.46762" lon="6.69567">
        <ele>2393.82</ele>
        <time>2023-01-22T09:57:51Z</time>
      </trkpt>
      <trkpt lat="44.46763" lon="6.69563">
        <ele>2394.3</ele>
        <time>2023-01-22T09:58:04Z</time>
      </trkpt>
      <trkpt lat="44.46763" lon="6.69556">
        <ele>2395.26</ele>
        <time>2023-01-22T09:58:21Z</time>
      </trkpt>
      <trkpt lat="44.46763" lon="6.69546">
        <ele>2399.11</ele>
        <time>2023-01-22T09:58:35Z</time>
      </trkpt>
      <trkpt lat="44.46762" lon="6.69534">
        <ele>2403.91</ele>
        <time>2023-01-22T09:58:52Z</time>
      </trkpt>
      <trkpt lat="44.46763" lon="6.69525">
        <ele>2404.39</ele>
        <time>2023-01-22T09:59:04Z</time>
      </trkpt>
      <trkpt lat="44.46764" lon="6.69519">
        <ele>2404.39</ele>
        <time>2023-01-22T09:59:13Z</time>
      </trkpt>
      <trkpt lat="44.46765" lon="6.69512">
        <ele>2404.39</ele>
        <time>2023-01-22T09:59:24Z</time>
      </trkpt>
      <trkpt lat="44.46765" lon="6.69497">
        <ele>2404.39</ele>
        <time>2023-01-22T09:59:43Z</time>
      </trkpt>
      <trkpt lat="44.46763" lon="6.69488">
        <ele>2406.32</ele>
        <time>2023-01-22T09:59:55Z</time>
      </trkpt>
      <trkpt lat="44.46758" lon="6.69482">
        <ele>2408.72</ele>
        <time>2023-01-22T10:00:06Z</time>
      </trkpt>
      <trkpt lat="44.46754" lon="6.69474">
        <ele>2410.16</ele>
        <time>2023-01-22T10:00:16Z</time>
      </trkpt>
      <trkpt lat="44.46749" lon="6.69467">
        <ele>2410.64</ele>
        <time>2023-01-22T10:00:31Z</time>
      </trkpt>
      <trkpt lat="44.46745" lon="6.69463">
        <ele>2411.6</ele>
        <time>2023-01-22T10:00:40Z</time>
      </trkpt>
      <trkpt lat="44.4674" lon="6.69459">
        <ele>2413.53</ele>
        <time>2023-01-22T10:00:50Z</time>
      </trkpt>
      <trkpt lat="44.46737" lon="6.69455">
        <ele>2416.41</ele>
        <time>2023-01-22T10:01:03Z</time>
      </trkpt>
      <trkpt lat="44.4673" lon="6.69454">
        <ele>2419.3</ele>
        <time>2023-01-22T10:01:20Z</time>
      </trkpt>
      <trkpt lat="44.46724" lon="6.69449">
        <ele>2420.74</ele>
        <time>2023-01-22T10:01:31Z</time>
      </trkpt>
      <trkpt lat="44.46721" lon="6.69446">
        <ele>2422.66</ele>
        <time>2023-01-22T10:01:42Z</time>
      </trkpt>
      <trkpt lat="44.46715" lon="6.69444">
        <ele>2426.02</ele>
        <time>2023-01-22T10:01:59Z</time>
      </trkpt>
      <trkpt lat="44.46711" lon="6.69441">
        <ele>2429.39</ele>
        <time>2023-01-22T10:02:13Z</time>
      </trkpt>
      <trkpt lat="44.46708" lon="6.69436">
        <ele>2431.79</ele>
        <time>2023-01-22T10:02:26Z</time>
      </trkpt>
      <trkpt lat="44.46708" lon="6.69435">
        <ele>2432.27</ele>
        <time>2023-01-22T10:02:27Z</time>
      </trkpt>
      <trkpt lat="44.46705" lon="6.69442">
        <ele>2432.75</ele>
        <time>2023-01-22T10:02:39Z</time>
      </trkpt>
      <trkpt lat="44.467" lon="6.69449">
        <ele>2434.68</ele>
        <time>2023-01-22T10:02:52Z</time>
      </trkpt>
      <trkpt lat="44.46697" lon="6.69449">
        <ele>2435.16</ele>
        <time>2023-01-22T10:03:07Z</time>
      </trkpt>
      <trkpt lat="44.46694" lon="6.69443">
        <ele>2437.08</ele>
        <time>2023-01-22T10:03:21Z</time>
      </trkpt>
      <trkpt lat="44.46691" lon="6.69436">
        <ele>2439.48</ele>
        <time>2023-01-22T10:03:32Z</time>
      </trkpt>
      <trkpt lat="44.46689" lon="6.69435">
        <ele>2440.92</ele>
        <time>2023-01-22T10:03:44Z</time>
      </trkpt>
      <trkpt lat="44.46686" lon="6.69442">
        <ele>2440.92</ele>
        <time>2023-01-22T10:03:57Z</time>
      </trkpt>
      <trkpt lat="44.46684" lon="6.69435">
        <ele>2443.81</ele>
        <time>2023-01-22T10:04:12Z</time>
      </trkpt>
      <trkpt lat="44.46682" lon="6.69429">
        <ele>2446.21</ele>
        <time>2023-01-22T10:04:23Z</time>
      </trkpt>
      <trkpt lat="44.46679" lon="6.69422">
        <ele>2448.13</ele>
        <time>2023-01-22T10:04:37Z</time>
      </trkpt>
      <trkpt lat="44.46676" lon="6.69414">
        <ele>2450.06</ele>
        <time>2023-01-22T10:04:50Z</time>
      </trkpt>
      <trkpt lat="44.46672" lon="6.69408">
        <ele>2452.94</ele>
        <time>2023-01-22T10:05:03Z</time>
      </trkpt>
      <trkpt lat="44.46669" lon="6.6941">
        <ele>2451.98</ele>
        <time>2023-01-22T10:05:13Z</time>
      </trkpt>
      <trkpt lat="44.46666" lon="6.6942">
        <ele>2452.46</ele>
        <time>2023-01-22T10:05:30Z</time>
      </trkpt>
      <trkpt lat="44.46662" lon="6.69419">
        <ele>2453.9</ele>
        <time>2023-01-22T10:05:41Z</time>
      </trkpt>
      <trkpt lat="44.4666" lon="6.69415">
        <ele>2456.31</ele>
        <time>2023-01-22T10:05:52Z</time>
      </trkpt>
      <trkpt lat="44.46658" lon="6.69409">
        <ele>2458.71</ele>
        <time>2023-01-22T10:06:03Z</time>
      </trkpt>
      <trkpt lat="44.46656" lon="6.69407">
        <ele>2460.15</ele>
        <time>2023-01-22T10:06:14Z</time>
      </trkpt>
      <trkpt lat="44.4665" lon="6.69418">
        <ele>2461.59</ele>
        <time>2023-01-22T10:06:30Z</time>
      </trkpt>
      <trkpt lat="44.46646" lon="6.69425">
        <ele>2463.04</ele>
        <time>2023-01-22T10:06:42Z</time>
      </trkpt>
      <trkpt lat="44.46644" lon="6.69418">
        <ele>2464.96</ele>
        <time>2023-01-22T10:06:55Z</time>
      </trkpt>
      <trkpt lat="44.46642" lon="6.6941">
        <ele>2466.4</ele>
        <time>2023-01-22T10:07:07Z</time>
      </trkpt>
      <trkpt lat="44.46641" lon="6.69406">
        <ele>2469.76</ele>
        <time>2023-01-22T10:07:19Z</time>
      </trkpt>
      <trkpt lat="44.46639" lon="6.69402">
        <ele>2470.24</ele>
        <time>2023-01-22T10:07:36Z</time>
      </trkpt>
      <trkpt lat="44.46636" lon="6.69397">
        <ele>2472.17</ele>
        <time>2023-01-22T10:07:48Z</time>
      </trkpt>
      <trkpt lat="44.46633" lon="6.6939">
        <ele>2475.05</ele>
        <time>2023-01-22T10:08:00Z</time>
      </trkpt>
      <trkpt lat="44.4663" lon="6.69387">
        <ele>2475.05</ele>
        <time>2023-01-22T10:08:12Z</time>
      </trkpt>
      <trkpt lat="44.46626" lon="6.69385">
        <ele>2476.97</ele>
        <time>2023-01-22T10:08:23Z</time>
      </trkpt>
      <trkpt lat="44.46624" lon="6.69379">
        <ele>2478.9</ele>
        <time>2023-01-22T10:08:35Z</time>
      </trkpt>
      <trkpt lat="44.46623" lon="6.69372">
        <ele>2481.78</ele>
        <time>2023-01-22T10:08:46Z</time>
      </trkpt>
      <trkpt lat="44.46622" lon="6.69366">
        <ele>2483.22</ele>
        <time>2023-01-22T10:08:56Z</time>
      </trkpt>
      <trkpt lat="44.46622" lon="6.69362">
        <ele>2485.15</ele>
        <time>2023-01-22T10:09:08Z</time>
      </trkpt>
      <trkpt lat="44.46621" lon="6.69358">
        <ele>2486.59</ele>
        <time>2023-01-22T10:09:19Z</time>
      </trkpt>
      <trkpt lat="44.46621" lon="6.69352">
        <ele>2488.99</ele>
        <time>2023-01-22T10:09:30Z</time>
      </trkpt>
      <trkpt lat="44.4662" lon="6.69348">
        <ele>2489.47</ele>
        <time>2023-01-22T10:09:41Z</time>
      </trkpt>
      <trkpt lat="44.46617" lon="6.69345">
        <ele>2490.43</ele>
        <time>2023-01-22T10:10:00Z</time>
      </trkpt>
      <trkpt lat="44.46612" lon="6.69345">
        <ele>2489.47</ele>
        <time>2023-01-22T10:10:13Z</time>
      </trkpt>
      <trkpt lat="44.46608" lon="6.69344">
        <ele>2491.39</ele>
        <time>2023-01-22T10:10:25Z</time>
      </trkpt>
      <trkpt lat="44.46604" lon="6.69339">
        <ele>2493.32</ele>
        <time>2023-01-22T10:10:35Z</time>
      </trkpt>
      <trkpt lat="44.46606" lon="6.69336">
        <ele>2496.2</ele>
        <time>2023-01-22T10:10:47Z</time>
      </trkpt>
      <trkpt lat="44.46605" lon="6.69333">
        <ele>2496.68</ele>
        <time>2023-01-22T10:11:05Z</time>
      </trkpt>
      <trkpt lat="44.46604" lon="6.69325">
        <ele>2499.08</ele>
        <time>2023-01-22T10:11:17Z</time>
      </trkpt>
      <trkpt lat="44.46601" lon="6.69321">
        <ele>2501.49</ele>
        <time>2023-01-22T10:11:28Z</time>
      </trkpt>
      <trkpt lat="44.46598" lon="6.69318">
        <ele>2501.49</ele>
        <time>2023-01-22T10:11:44Z</time>
      </trkpt>
      <trkpt lat="44.466" lon="6.69311">
        <ele>2504.37</ele>
        <time>2023-01-22T10:11:56Z</time>
      </trkpt>
      <trkpt lat="44.46597" lon="6.69308">
        <ele>2507.26</ele>
        <time>2023-01-22T10:12:07Z</time>
      </trkpt>
      <trkpt lat="44.46592" lon="6.69303">
        <ele>2509.18</ele>
        <time>2023-01-22T10:12:22Z</time>
      </trkpt>
      <trkpt lat="44.46591" lon="6.69297">
        <ele>2511.58</ele>
        <time>2023-01-22T10:12:33Z</time>
      </trkpt>
      <trkpt lat="44.4659" lon="6.69292">
        <ele>2512.54</ele>
        <time>2023-01-22T10:12:43Z</time>
      </trkpt>
      <trkpt lat="44.4659" lon="6.69288">
        <ele>2513.02</ele>
        <time>2023-01-22T10:12:56Z</time>
      </trkpt>
      <trkpt lat="44.46589" lon="6.69281">
        <ele>2514.95</ele>
        <time>2023-01-22T10:13:07Z</time>
      </trkpt>
      <trkpt lat="44.46584" lon="6.6928">
        <ele>2514.47</ele>
        <time>2023-01-22T10:13:18Z</time>
      </trkpt>
      <trkpt lat="44.46581" lon="6.6928">
        <ele>2515.91</ele>
        <time>2023-01-22T10:13:30Z</time>
      </trkpt>
      <trkpt lat="44.46582" lon="6.69273">
        <ele>2516.87</ele>
        <time>2023-01-22T10:13:42Z</time>
      </trkpt>
      <trkpt lat="44.46584" lon="6.69267">
        <ele>2517.83</ele>
        <time>2023-01-22T10:13:54Z</time>
      </trkpt>
      <trkpt lat="44.46583" lon="6.69262">
        <ele>2519.75</ele>
        <time>2023-01-22T10:14:04Z</time>
      </trkpt>
      <trkpt lat="44.46578" lon="6.6926">
        <ele>2521.68</ele>
        <time>2023-01-22T10:14:16Z</time>
      </trkpt>
      <trkpt lat="44.46571" lon="6.69258">
        <ele>2523.12</ele>
        <time>2023-01-22T10:14:29Z</time>
      </trkpt>
      <trkpt lat="44.46569" lon="6.69255">
        <ele>2524.56</ele>
        <time>2023-01-22T10:14:42Z</time>
      </trkpt>
      <trkpt lat="44.46571" lon="6.6925">
        <ele>2525.52</ele>
        <time>2023-01-22T10:14:55Z</time>
      </trkpt>
      <trkpt lat="44.4657" lon="6.69246">
        <ele>2527.92</ele>
        <time>2023-01-22T10:15:10Z</time>
      </trkpt>
      <trkpt lat="44.46571" lon="6.69238">
        <ele>2530.33</ele>
        <time>2023-01-22T10:15:21Z</time>
      </trkpt>
      <trkpt lat="44.46563" lon="6.69237">
        <ele>2531.29</ele>
        <time>2023-01-22T10:15:33Z</time>
      </trkpt>
      <trkpt lat="44.46555" lon="6.69236">
        <ele>2531.77</ele>
        <time>2023-01-22T10:15:47Z</time>
      </trkpt>
      <trkpt lat="44.46552" lon="6.69237">
        <ele>2533.21</ele>
        <time>2023-01-22T10:16:00Z</time>
      </trkpt>
      <trkpt lat="44.46554" lon="6.69235">
        <ele>2533.69</ele>
        <time>2023-01-22T10:16:11Z</time>
      </trkpt>
      <trkpt lat="44.46554" lon="6.6923">
        <ele>2535.61</ele>
        <time>2023-01-22T10:16:23Z</time>
      </trkpt>
      <trkpt lat="44.46555" lon="6.69222">
        <ele>2537.54</ele>
        <time>2023-01-22T10:16:36Z</time>
      </trkpt>
      <trkpt lat="44.46556" lon="6.69217">
        <ele>2539.94</ele>
        <time>2023-01-22T10:16:47Z</time>
      </trkpt>
      <trkpt lat="44.46557" lon="6.69212">
        <ele>2540.9</ele>
        <time>2023-01-22T10:16:56Z</time>
      </trkpt>
      <trkpt lat="44.46558" lon="6.69209">
        <ele>2542.82</ele>
        <time>2023-01-22T10:17:07Z</time>
      </trkpt>
      <trkpt lat="44.46558" lon="6.69205">
        <ele>2543.31</ele>
        <time>2023-01-22T10:17:16Z</time>
      </trkpt>
      <trkpt lat="44.4656" lon="6.69199">
        <ele>2544.75</ele>
        <time>2023-01-22T10:17:27Z</time>
      </trkpt>
      <trkpt lat="44.46563" lon="6.69192">
        <ele>2545.71</ele>
        <time>2023-01-22T10:17:40Z</time>
      </trkpt>
      <trkpt lat="44.46565" lon="6.69188">
        <ele>2545.71</ele>
        <time>2023-01-22T10:17:51Z</time>
      </trkpt>
      <trkpt lat="44.46567" lon="6.69186">
        <ele>2546.67</ele>
        <time>2023-01-22T10:18:08Z</time>
      </trkpt>
      <trkpt lat="44.46571" lon="6.6918">
        <ele>2548.11</ele>
        <time>2023-01-22T10:18:21Z</time>
      </trkpt>
      <trkpt lat="44.46575" lon="6.69176">
        <ele>2550.51</ele>
        <time>2023-01-22T10:18:35Z</time>
      </trkpt>
      <trkpt lat="44.46579" lon="6.69172">
        <ele>2551.48</ele>
        <time>2023-01-22T10:18:46Z</time>
      </trkpt>
      <trkpt lat="44.46579" lon="6.69165">
        <ele>2552.44</ele>
        <time>2023-01-22T10:18:58Z</time>
      </trkpt>
      <trkpt lat="44.46573" lon="6.6916">
        <ele>2553.4</ele>
        <time>2023-01-22T10:19:11Z</time>
      </trkpt>
      <trkpt lat="44.4657" lon="6.6916">
        <ele>2554.84</ele>
        <time>2023-01-22T10:19:26Z</time>
      </trkpt>
      <trkpt lat="44.46564" lon="6.69156">
        <ele>2557.24</ele>
        <time>2023-01-22T10:19:40Z</time>
      </trkpt>
      <trkpt lat="44.46559" lon="6.69155">
        <ele>2559.17</ele>
        <time>2023-01-22T10:19:57Z</time>
      </trkpt>
      <trkpt lat="44.46551" lon="6.69153">
        <ele>2560.13</ele>
        <time>2023-01-22T10:20:10Z</time>
      </trkpt>
      <trkpt lat="44.46546" lon="6.69153">
        <ele>2563.49</ele>
        <time>2023-01-22T10:20:25Z</time>
      </trkpt>
      <trkpt lat="44.46545" lon="6.69152">
        <ele>2565.9</ele>
        <time>2023-01-22T10:20:39Z</time>
      </trkpt>
      <trkpt lat="44.46546" lon="6.69154">
        <ele>2566.38</ele>
        <time>2023-01-22T10:20:53Z</time>
      </trkpt>
      <trkpt lat="44.46546" lon="6.69153">
        <ele>2565.9</ele>
        <time>2023-01-22T10:21:02Z</time>
      </trkpt>
      <trkpt lat="44.46547" lon="6.69149">
        <ele>2564.93</ele>
        <time>2023-01-22T10:21:14Z</time>
      </trkpt>
      <trkpt lat="44.4655" lon="6.69141">
        <ele>2566.86</ele>
        <time>2023-01-22T10:21:25Z</time>
      </trkpt>
      <trkpt lat="44.46554" lon="6.69136">
        <ele>2570.7</ele>
        <time>2023-01-22T10:21:37Z</time>
      </trkpt>
      <trkpt lat="44.46558" lon="6.69128">
        <ele>2571.66</ele>
        <time>2023-01-22T10:21:51Z</time>
      </trkpt>
      <trkpt lat="44.4656" lon="6.69123">
        <ele>2573.11</ele>
        <time>2023-01-22T10:22:02Z</time>
      </trkpt>
      <trkpt lat="44.46563" lon="6.69117">
        <ele>2574.55</ele>
        <time>2023-01-22T10:22:12Z</time>
      </trkpt>
      <trkpt lat="44.46569" lon="6.69112">
        <ele>2573.11</ele>
        <time>2023-01-22T10:22:22Z</time>
      </trkpt>
      <trkpt lat="44.46573" lon="6.69106">
        <ele>2570.7</ele>
        <time>2023-01-22T10:22:33Z</time>
      </trkpt>
      <trkpt lat="44.46576" lon="6.69098">
        <ele>2570.7</ele>
        <time>2023-01-22T10:22:45Z</time>
      </trkpt>
      <trkpt lat="44.46574" lon="6.69098">
        <ele>2572.14</ele>
        <time>2023-01-22T10:22:59Z</time>
      </trkpt>
      <trkpt lat="44.46574" lon="6.69097">
        <ele>2573.59</ele>
        <time>2023-01-22T10:23:18Z</time>
      </trkpt>
      <trkpt lat="44.46574" lon="6.69097">
        <ele>2577.43</ele>
        <time>2023-01-22T10:23:35Z</time>
      </trkpt>
      <trkpt lat="44.46573" lon="6.69097">
        <ele>2579.84</ele>
        <time>2023-01-22T10:23:50Z</time>
      </trkpt>
      <trkpt lat="44.46565" lon="6.69103">
        <ele>2580.8</ele>
        <time>2023-01-22T10:24:03Z</time>
      </trkpt>
      <trkpt lat="44.46564" lon="6.69105">
        <ele>2582.24</ele>
        <time>2023-01-22T10:24:06Z</time>
      </trkpt>
      <trkpt lat="44.46557" lon="6.69111">
        <ele>2584.64</ele>
        <time>2023-01-22T10:24:22Z</time>
      </trkpt>
      <trkpt lat="44.46549" lon="6.69116">
        <ele>2588.01</ele>
        <time>2023-01-22T10:24:36Z</time>
      </trkpt>
      <trkpt lat="44.46541" lon="6.6912">
        <ele>2589.93</ele>
        <time>2023-01-22T10:24:51Z</time>
      </trkpt>
      <trkpt lat="44.46528" lon="6.69127">
        <ele>2586.56</ele>
        <time>2023-01-22T10:25:07Z</time>
      </trkpt>
      <trkpt lat="44.46518" lon="6.69129">
        <ele>2583.2</ele>
        <time>2023-01-22T10:25:20Z</time>
      </trkpt>
      <trkpt lat="44.46514" lon="6.69131">
        <ele>2582.24</ele>
        <time>2023-01-22T10:25:34Z</time>
      </trkpt>
      <trkpt lat="44.46505" lon="6.69137">
        <ele>2580.32</ele>
        <time>2023-01-22T10:25:49Z</time>
      </trkpt>
      <trkpt lat="44.46499" lon="6.69143">
        <ele>2580.8</ele>
        <time>2023-01-22T10:26:04Z</time>
      </trkpt>
      <trkpt lat="44.46491" lon="6.69147">
        <ele>2581.76</ele>
        <time>2023-01-22T10:26:22Z</time>
      </trkpt>
      <trkpt lat="44.46484" lon="6.69153">
        <ele>2581.28</ele>
        <time>2023-01-22T10:26:35Z</time>
      </trkpt>
      <trkpt lat="44.46479" lon="6.69157">
        <ele>2581.76</ele>
        <time>2023-01-22T10:26:54Z</time>
      </trkpt>
      <trkpt lat="44.46471" lon="6.69166">
        <ele>2580.8</ele>
        <time>2023-01-22T10:27:12Z</time>
      </trkpt>
      <trkpt lat="44.46466" lon="6.69174">
        <ele>2583.2</ele>
        <time>2023-01-22T10:27:25Z</time>
      </trkpt>
      <trkpt lat="44.46459" lon="6.69181">
        <ele>2589.93</ele>
        <time>2023-01-22T10:27:43Z</time>
      </trkpt>
      <trkpt lat="44.46454" lon="6.69191">
        <ele>2595.7</ele>
        <time>2023-01-22T10:27:59Z</time>
      </trkpt>
      <trkpt lat="44.4645" lon="6.69203">
        <ele>2598.1</ele>
        <time>2023-01-22T10:28:12Z</time>
      </trkpt>
      <trkpt lat="44.46446" lon="6.69213">
        <ele>2601.46</ele>
        <time>2023-01-22T10:28:27Z</time>
      </trkpt>
      <trkpt lat="44.46443" lon="6.69224">
        <ele>2604.35</ele>
        <time>2023-01-22T10:28:42Z</time>
      </trkpt>
      <trkpt lat="44.46439" lon="6.69233">
        <ele>2605.31</ele>
        <time>2023-01-22T10:28:57Z</time>
      </trkpt>
      <trkpt lat="44.46439" lon="6.69239">
        <ele>2604.35</ele>
        <time>2023-01-22T10:29:11Z</time>
      </trkpt>
      <trkpt lat="44.46436" lon="6.69247">
        <ele>2605.79</ele>
        <time>2023-01-22T10:29:26Z</time>
      </trkpt>
      <trkpt lat="44.4643" lon="6.69254">
        <ele>2608.67</ele>
        <time>2023-01-22T10:29:39Z</time>
      </trkpt>
      <trkpt lat="44.46425" lon="6.6926">
        <ele>2608.67</ele>
        <time>2023-01-22T10:29:51Z</time>
      </trkpt>
      <trkpt lat="44.46422" lon="6.69266">
        <ele>2608.67</ele>
        <time>2023-01-22T10:30:04Z</time>
      </trkpt>
      <trkpt lat="44.46419" lon="6.69275">
        <ele>2608.19</ele>
        <time>2023-01-22T10:30:17Z</time>
      </trkpt>
      <trkpt lat="44.46417" lon="6.6928">
        <ele>2608.19</ele>
        <time>2023-01-22T10:30:28Z</time>
      </trkpt>
      <trkpt lat="44.46416" lon="6.69284">
        <ele>2609.64</ele>
        <time>2023-01-22T10:30:39Z</time>
      </trkpt>
      <trkpt lat="44.46414" lon="6.6929">
        <ele>2610.12</ele>
        <time>2023-01-22T10:30:50Z</time>
      </trkpt>
      <trkpt lat="44.46414" lon="6.69291">
        <ele>2611.08</ele>
        <time>2023-01-22T10:31:07Z</time>
      </trkpt>
      <trkpt lat="44.46411" lon="6.69294">
        <ele>2612.52</ele>
        <time>2023-01-22T10:31:21Z</time>
      </trkpt>
      <trkpt lat="44.46404" lon="6.69296">
        <ele>2613.96</ele>
        <time>2023-01-22T10:31:39Z</time>
      </trkpt>
      <trkpt lat="44.46401" lon="6.69298">
        <ele>2615.88</ele>
        <time>2023-01-22T10:31:54Z</time>
      </trkpt>
      <trkpt lat="44.46397" lon="6.69299">
        <ele>2616.37</ele>
        <time>2023-01-22T10:32:08Z</time>
      </trkpt>
      <trkpt lat="44.46391" lon="6.69296">
        <ele>2617.33</ele>
        <time>2023-01-22T10:32:19Z</time>
      </trkpt>
      <trkpt lat="44.46387" lon="6.69293">
        <ele>2619.25</ele>
        <time>2023-01-22T10:32:32Z</time>
      </trkpt>
      <trkpt lat="44.4638" lon="6.69289">
        <ele>2620.21</ele>
        <time>2023-01-22T10:32:46Z</time>
      </trkpt>
      <trkpt lat="44.46381" lon="6.69287">
        <ele>2620.69</ele>
        <time>2023-01-22T10:32:58Z</time>
      </trkpt>
      <trkpt lat="44.46384" lon="6.69281">
        <ele>2622.13</ele>
        <time>2023-01-22T10:33:11Z</time>
      </trkpt>
      <trkpt lat="44.46387" lon="6.69275">
        <ele>2622.61</ele>
        <time>2023-01-22T10:33:22Z</time>
      </trkpt>
      <trkpt lat="44.46388" lon="6.69269">
        <ele>2622.61</ele>
        <time>2023-01-22T10:33:33Z</time>
      </trkpt>
      <trkpt lat="44.4639" lon="6.69264">
        <ele>2624.54</ele>
        <time>2023-01-22T10:33:43Z</time>
      </trkpt>
      <trkpt lat="44.46388" lon="6.69263">
        <ele>2626.46</ele>
        <time>2023-01-22T10:34:02Z</time>
      </trkpt>
      <trkpt lat="44.46383" lon="6.69261">
        <ele>2628.38</ele>
        <time>2023-01-22T10:34:14Z</time>
      </trkpt>
      <trkpt lat="44.4638" lon="6.6926">
        <ele>2630.79</ele>
        <time>2023-01-22T10:34:25Z</time>
      </trkpt>
      <trkpt lat="44.46377" lon="6.69258">
        <ele>2631.27</ele>
        <time>2023-01-22T10:34:38Z</time>
      </trkpt>
      <trkpt lat="44.46371" lon="6.69255">
        <ele>2631.75</ele>
        <time>2023-01-22T10:34:49Z</time>
      </trkpt>
      <trkpt lat="44.46368" lon="6.69253">
        <ele>2633.67</ele>
        <time>2023-01-22T10:35:03Z</time>
      </trkpt>
      <trkpt lat="44.46363" lon="6.69251">
        <ele>2635.11</ele>
        <time>2023-01-22T10:35:16Z</time>
      </trkpt>
      <trkpt lat="44.46362" lon="6.69249">
        <ele>2637.03</ele>
        <time>2023-01-22T10:35:30Z</time>
      </trkpt>
      <trkpt lat="44.46362" lon="6.69246">
        <ele>2636.55</ele>
        <time>2023-01-22T10:35:46Z</time>
      </trkpt>
      <trkpt lat="44.46366" lon="6.69241">
        <ele>2638.48</ele>
        <time>2023-01-22T10:35:59Z</time>
      </trkpt>
      <trkpt lat="44.46371" lon="6.69235">
        <ele>2640.4</ele>
        <time>2023-01-22T10:36:11Z</time>
      </trkpt>
      <trkpt lat="44.46375" lon="6.69229">
        <ele>2642.32</ele>
        <time>2023-01-22T10:36:24Z</time>
      </trkpt>
      <trkpt lat="44.46377" lon="6.69225">
        <ele>2643.28</ele>
        <time>2023-01-22T10:36:35Z</time>
      </trkpt>
      <trkpt lat="44.46375" lon="6.69224">
        <ele>2644.72</ele>
        <time>2023-01-22T10:36:50Z</time>
      </trkpt>
      <trkpt lat="44.4637" lon="6.69223">
        <ele>2645.69</ele>
        <time>2023-01-22T10:37:02Z</time>
      </trkpt>
      <trkpt lat="44.46364" lon="6.69221">
        <ele>2647.13</ele>
        <time>2023-01-22T10:37:15Z</time>
      </trkpt>
      <trkpt lat="44.4636" lon="6.69219">
        <ele>2648.57</ele>
        <time>2023-01-22T10:37:30Z</time>
      </trkpt>
      <trkpt lat="44.46352" lon="6.69214">
        <ele>2650.49</ele>
        <time>2023-01-22T10:37:44Z</time>
      </trkpt>
      <trkpt lat="44.46347" lon="6.69211">
        <ele>2651.93</ele>
        <time>2023-01-22T10:37:56Z</time>
      </trkpt>
      <trkpt lat="44.46339" lon="6.69207">
        <ele>2654.82</ele>
        <time>2023-01-22T10:38:12Z</time>
      </trkpt>
      <trkpt lat="44.46335" lon="6.69205">
        <ele>2656.26</ele>
        <time>2023-01-22T10:38:27Z</time>
      </trkpt>
      <trkpt lat="44.46328" lon="6.69201">
        <ele>2657.22</ele>
        <time>2023-01-22T10:38:37Z</time>
      </trkpt>
      <trkpt lat="44.46321" lon="6.69199">
        <ele>2658.66</ele>
        <time>2023-01-22T10:38:51Z</time>
      </trkpt>
      <trkpt lat="44.46315" lon="6.69198">
        <ele>2660.59</ele>
        <time>2023-01-22T10:39:04Z</time>
      </trkpt>
      <trkpt lat="44.46313" lon="6.69198">
        <ele>2660.59</ele>
        <time>2023-01-22T10:39:06Z</time>
      </trkpt>
      <trkpt lat="44.46305" lon="6.69197">
        <ele>2661.07</ele>
        <time>2023-01-22T10:39:19Z</time>
      </trkpt>
      <trkpt lat="44.46299" lon="6.69194">
        <ele>2662.51</ele>
        <time>2023-01-22T10:39:33Z</time>
      </trkpt>
      <trkpt lat="44.46301" lon="6.69193">
        <ele>2662.99</ele>
        <time>2023-01-22T10:39:48Z</time>
      </trkpt>
      <trkpt lat="44.463" lon="6.6919">
        <ele>2663.95</ele>
        <time>2023-01-22T10:40:04Z</time>
      </trkpt>
      <trkpt lat="44.46302" lon="6.69184">
        <ele>2664.43</ele>
        <time>2023-01-22T10:40:16Z</time>
      </trkpt>
      <trkpt lat="44.46304" lon="6.69177">
        <ele>2664.91</ele>
        <time>2023-01-22T10:40:28Z</time>
      </trkpt>
      <trkpt lat="44.46306" lon="6.69173">
        <ele>2666.35</ele>
        <time>2023-01-22T10:40:39Z</time>
      </trkpt>
      <trkpt lat="44.4631" lon="6.69169">
        <ele>2668.76</ele>
        <time>2023-01-22T10:40:51Z</time>
      </trkpt>
      <trkpt lat="44.46314" lon="6.69165">
        <ele>2670.68</ele>
        <time>2023-01-22T10:41:03Z</time>
      </trkpt>
      <trkpt lat="44.46318" lon="6.69161">
        <ele>2672.12</ele>
        <time>2023-01-22T10:41:14Z</time>
      </trkpt>
      <trkpt lat="44.46321" lon="6.69159">
        <ele>2674.04</ele>
        <time>2023-01-22T10:41:27Z</time>
      </trkpt>
      <trkpt lat="44.46326" lon="6.69153">
        <ele>2674.04</ele>
        <time>2023-01-22T10:41:39Z</time>
      </trkpt>
      <trkpt lat="44.4633" lon="6.69148">
        <ele>2675.01</ele>
        <time>2023-01-22T10:41:52Z</time>
      </trkpt>
      <trkpt lat="44.46329" lon="6.69147">
        <ele>2675.49</ele>
        <time>2023-01-22T10:42:08Z</time>
      </trkpt>
      <trkpt lat="44.46323" lon="6.69142">
        <ele>2675.49</ele>
        <time>2023-01-22T10:42:24Z</time>
      </trkpt>
      <trkpt lat="44.46318" lon="6.6914">
        <ele>2675.97</ele>
        <time>2023-01-22T10:42:41Z</time>
      </trkpt>
      <trkpt lat="44.46315" lon="6.69138">
        <ele>2676.45</ele>
        <time>2023-01-22T10:42:57Z</time>
      </trkpt>
      <trkpt lat="44.46312" lon="6.69135">
        <ele>2676.93</ele>
        <time>2023-01-22T10:43:12Z</time>
      </trkpt>
      <trkpt lat="44.46315" lon="6.69131">
        <ele>2679.81</ele>
        <time>2023-01-22T10:43:24Z</time>
      </trkpt>
      <trkpt lat="44.46315" lon="6.69132">
        <ele>2679.81</ele>
        <time>2023-01-22T10:43:44Z</time>
      </trkpt>
      <trkpt lat="44.46309" lon="6.69129">
        <ele>2681.25</ele>
        <time>2023-01-22T10:44:00Z</time>
      </trkpt>
      <trkpt lat="44.46301" lon="6.69128">
        <ele>2682.22</ele>
        <time>2023-01-22T10:44:14Z</time>
      </trkpt>
      <trkpt lat="44.46293" lon="6.69129">
        <ele>2686.06</ele>
        <time>2023-01-22T10:44:32Z</time>
      </trkpt>
      <trkpt lat="44.46286" lon="6.69131">
        <ele>2688.46</ele>
        <time>2023-01-22T10:44:47Z</time>
      </trkpt>
      <trkpt lat="44.46277" lon="6.69138">
        <ele>2692.31</ele>
        <time>2023-01-22T10:45:06Z</time>
      </trkpt>
      <trkpt lat="44.46271" lon="6.69141">
        <ele>2693.75</ele>
        <time>2023-01-22T10:45:19Z</time>
      </trkpt>
      <trkpt lat="44.46263" lon="6.69142">
        <ele>2693.27</ele>
        <time>2023-01-22T10:45:36Z</time>
      </trkpt>
      <trkpt lat="44.46255" lon="6.69141">
        <ele>2694.71</ele>
        <time>2023-01-22T10:45:51Z</time>
      </trkpt>
      <trkpt lat="44.46257" lon="6.6914">
        <ele>2695.19</ele>
        <time>2023-01-22T10:46:06Z</time>
      </trkpt>
      <trkpt lat="44.46256" lon="6.69138">
        <ele>2694.71</ele>
        <time>2023-01-22T10:46:16Z</time>
      </trkpt>
      <trkpt lat="44.46252" lon="6.69135">
        <ele>2697.12</ele>
        <time>2023-01-22T10:46:29Z</time>
      </trkpt>
      <trkpt lat="44.46252" lon="6.69135">
        <ele>2697.12</ele>
        <time>2023-01-22T10:46:45Z</time>
      </trkpt>
      <trkpt lat="44.46252" lon="6.69134">
        <ele>2695.67</ele>
        <time>2023-01-22T10:47:01Z</time>
      </trkpt>
      <trkpt lat="44.46253" lon="6.69132">
        <ele>2696.64</ele>
        <time>2023-01-22T10:47:19Z</time>
      </trkpt>
      <trkpt lat="44.46253" lon="6.69133">
        <ele>2696.64</ele>
        <time>2023-01-22T10:47:31Z</time>
      </trkpt>
      <trkpt lat="44.46253" lon="6.6913">
        <ele>2697.12</ele>
        <time>2023-01-22T10:47:54Z</time>
      </trkpt>
      <trkpt lat="44.46253" lon="6.69131">
        <ele>2698.56</ele>
        <time>2023-01-22T10:48:25Z</time>
      </trkpt>
      <trkpt lat="44.46254" lon="6.69131">
        <ele>2698.08</ele>
        <time>2023-01-22T10:48:58Z</time>
      </trkpt>
      <trkpt lat="44.46255" lon="6.69131">
        <ele>2698.56</ele>
        <time>2023-01-22T10:49:38Z</time>
      </trkpt>
      <trkpt lat="44.46255" lon="6.69132">
        <ele>2698.56</ele>
        <time>2023-01-22T10:50:09Z</time>
      </trkpt>
      <trkpt lat="44.46255" lon="6.69132">
        <ele>2699.52</ele>
        <time>2023-01-22T10:50:51Z</time>
      </trkpt>
      <trkpt lat="44.46255" lon="6.69133">
        <ele>2700</ele>
        <time>2023-01-22T10:51:20Z</time>
      </trkpt>
      <trkpt lat="44.46255" lon="6.69133">
        <ele>2699.52</ele>
        <time>2023-01-22T10:51:55Z</time>
      </trkpt>
      <trkpt lat="44.46255" lon="6.69133">
        <ele>2700.48</ele>
        <time>2023-01-22T10:52:25Z</time>
      </trkpt>
      <trkpt lat="44.46255" lon="6.69132">
        <ele>2700.96</ele>
        <time>2023-01-22T10:52:59Z</time>
      </trkpt>
      <trkpt lat="44.46255" lon="6.69133">
        <ele>2702.4</ele>
        <time>2023-01-22T10:53:36Z</time>
      </trkpt>
      <trkpt lat="44.46255" lon="6.69133">
        <ele>2702.88</ele>
        <time>2023-01-22T10:54:10Z</time>
      </trkpt>
      <trkpt lat="44.46255" lon="6.69132">
        <ele>2702.4</ele>
        <time>2023-01-22T10:54:40Z</time>
      </trkpt>
      <trkpt lat="44.46256" lon="6.69133">
        <ele>2703.36</ele>
        <time>2023-01-22T10:55:18Z</time>
      </trkpt>
      <trkpt lat="44.46256" lon="6.69132">
        <ele>2703.36</ele>
        <time>2023-01-22T10:55:51Z</time>
      </trkpt>
      <trkpt lat="44.46256" lon="6.69133">
        <ele>2703.36</ele>
        <time>2023-01-22T10:56:28Z</time>
      </trkpt>
      <trkpt lat="44.46255" lon="6.69133">
        <ele>2703.36</ele>
        <time>2023-01-22T10:57:08Z</time>
      </trkpt>
      <trkpt lat="44.46255" lon="6.69133">
        <ele>2702.88</ele>
        <time>2023-01-22T10:57:48Z</time>
      </trkpt>
      <trkpt lat="44.46254" lon="6.69132">
        <ele>2701.92</ele>
        <time>2023-01-22T10:58:21Z</time>
      </trkpt>
      <trkpt lat="44.46255" lon="6.69132">
        <ele>2701.92</ele>
        <time>2023-01-22T10:58:51Z</time>
      </trkpt>
      <trkpt lat="44.46252" lon="6.69129">
        <ele>2701.92</ele>
        <time>2023-01-22T10:59:14Z</time>
      </trkpt>
      <trkpt lat="44.46252" lon="6.69128">
        <ele>2702.88</ele>
        <time>2023-01-22T10:59:43Z</time>
      </trkpt>
      <trkpt lat="44.46253" lon="6.69128">
        <ele>2703.36</ele>
        <time>2023-01-22T11:00:09Z</time>
      </trkpt>
      <trkpt lat="44.46253" lon="6.6913">
        <ele>2700</ele>
        <time>2023-01-22T11:00:28Z</time>
      </trkpt>
      <trkpt lat="44.46254" lon="6.69132">
        <ele>2698.08</ele>
        <time>2023-01-22T11:01:12Z</time>
      </trkpt>
      <trkpt lat="44.46253" lon="6.69133">
        <ele>2699.04</ele>
        <time>2023-01-22T11:01:47Z</time>
      </trkpt>
      <trkpt lat="44.46253" lon="6.69133">
        <ele>2700</ele>
        <time>2023-01-22T11:02:20Z</time>
      </trkpt>
      <trkpt lat="44.46253" lon="6.69133">
        <ele>2700.48</ele>
        <time>2023-01-22T11:02:59Z</time>
      </trkpt>
      <trkpt lat="44.46253" lon="6.69134">
        <ele>2700</ele>
        <time>2023-01-22T11:03:38Z</time>
      </trkpt>
      <trkpt lat="44.46253" lon="6.69134">
        <ele>2700</ele>
        <time>2023-01-22T11:04:16Z</time>
      </trkpt>
      <trkpt lat="44.46254" lon="6.69134">
        <ele>2700</ele>
        <time>2023-01-22T11:04:49Z</time>
      </trkpt>
      <trkpt lat="44.46254" lon="6.69133">
        <ele>2699.04</ele>
        <time>2023-01-22T11:05:34Z</time>
      </trkpt>
      <trkpt lat="44.46254" lon="6.69132">
        <ele>2698.56</ele>
        <time>2023-01-22T11:06:15Z</time>
      </trkpt>
      <trkpt lat="44.46254" lon="6.69132">
        <ele>2698.08</ele>
        <time>2023-01-22T11:06:50Z</time>
      </trkpt>
      <trkpt lat="44.46254" lon="6.69132">
        <ele>2698.08</ele>
        <time>2023-01-22T11:07:31Z</time>
      </trkpt>
      <trkpt lat="44.46254" lon="6.69132">
        <ele>2699.04</ele>
        <time>2023-01-22T11:08:03Z</time>
      </trkpt>
      <trkpt lat="44.46254" lon="6.69132">
        <ele>2698.56</ele>
        <time>2023-01-22T11:08:45Z</time>
      </trkpt>
      <trkpt lat="44.46254" lon="6.69132">
        <ele>2698.08</ele>
        <time>2023-01-22T11:09:19Z</time>
      </trkpt>
      <trkpt lat="44.46254" lon="6.69132">
        <ele>2698.56</ele>
        <time>2023-01-22T11:10:04Z</time>
      </trkpt>
      <trkpt lat="44.46254" lon="6.69132">
        <ele>2698.56</ele>
        <time>2023-01-22T11:10:44Z</time>
      </trkpt>
      <trkpt lat="44.46254" lon="6.69132">
        <ele>2697.12</ele>
        <time>2023-01-22T11:11:21Z</time>
      </trkpt>
      <trkpt lat="44.46254" lon="6.69132">
        <ele>2698.08</ele>
        <time>2023-01-22T11:11:54Z</time>
      </trkpt>
      <trkpt lat="44.46254" lon="6.69132">
        <ele>2697.6</ele>
        <time>2023-01-22T11:12:37Z</time>
      </trkpt>
      <trkpt lat="44.46254" lon="6.69132">
        <ele>2698.56</ele>
        <time>2023-01-22T11:13:11Z</time>
      </trkpt>
      <trkpt lat="44.46254" lon="6.69132">
        <ele>2697.6</ele>
        <time>2023-01-22T11:13:45Z</time>
      </trkpt>
      <trkpt lat="44.46255" lon="6.69132">
        <ele>2699.52</ele>
        <time>2023-01-22T11:14:07Z</time>
      </trkpt>
      <trkpt lat="44.46254" lon="6.69131">
        <ele>2698.08</ele>
        <time>2023-01-22T11:14:15Z</time>
      </trkpt>
      <trkpt lat="44.46253" lon="6.69133">
        <ele>2701.92</ele>
        <time>2023-01-22T11:14:30Z</time>
      </trkpt>
      <trkpt lat="44.46253" lon="6.69133">
        <ele>2700.96</ele>
        <time>2023-01-22T11:14:45Z</time>
      </trkpt>
      <trkpt lat="44.46253" lon="6.69135">
        <ele>2699.52</ele>
        <time>2023-01-22T11:14:55Z</time>
      </trkpt>
      <trkpt lat="44.46254" lon="6.69136">
        <ele>2698.56</ele>
        <time>2023-01-22T11:15:08Z</time>
      </trkpt>
      <trkpt lat="44.46254" lon="6.69137">
        <ele>2698.08</ele>
        <time>2023-01-22T11:15:20Z</time>
      </trkpt>
      <trkpt lat="44.46254" lon="6.69137">
        <ele>2698.08</ele>
        <time>2023-01-22T11:15:35Z</time>
      </trkpt>
      <trkpt lat="44.46254" lon="6.69137">
        <ele>2698.56</ele>
        <time>2023-01-22T11:15:52Z</time>
      </trkpt>
      <trkpt lat="44.46254" lon="6.69137">
        <ele>2698.56</ele>
        <time>2023-01-22T11:16:06Z</time>
      </trkpt>
      <trkpt lat="44.46256" lon="6.69137">
        <ele>2699.52</ele>
        <time>2023-01-22T11:16:19Z</time>
      </trkpt>
      <trkpt lat="44.46266" lon="6.69137">
        <ele>2697.6</ele>
        <time>2023-01-22T11:16:29Z</time>
      </trkpt>
      <trkpt lat="44.46281" lon="6.69132">
        <ele>2693.27</ele>
        <time>2023-01-22T11:16:40Z</time>
      </trkpt>
      <trkpt lat="44.46289" lon="6.69129">
        <ele>2691.83</ele>
        <time>2023-01-22T11:16:50Z</time>
      </trkpt>
      <trkpt lat="44.463" lon="6.69127">
        <ele>2689.43</ele>
        <time>2023-01-22T11:16:58Z</time>
      </trkpt>
      <trkpt lat="44.46301" lon="6.69133">
        <ele>2687.02</ele>
        <time>2023-01-22T11:17:03Z</time>
      </trkpt>
      <trkpt lat="44.46298" lon="6.69137">
        <ele>2685.58</ele>
        <time>2023-01-22T11:17:05Z</time>
      </trkpt>
      <trkpt lat="44.46301" lon="6.69142">
        <ele>2682.22</ele>
        <time>2023-01-22T11:17:09Z</time>
      </trkpt>
      <trkpt lat="44.46301" lon="6.69147">
        <ele>2679.81</ele>
        <time>2023-01-22T11:17:16Z</time>
      </trkpt>
      <trkpt lat="44.46305" lon="6.69156">
        <ele>2673.56</ele>
        <time>2023-01-22T11:17:23Z</time>
      </trkpt>
      <trkpt lat="44.46314" lon="6.69162">
        <ele>2669.72</ele>
        <time>2023-01-22T11:17:28Z</time>
      </trkpt>
      <trkpt lat="44.46316" lon="6.69163">
        <ele>2669.24</ele>
        <time>2023-01-22T11:17:29Z</time>
      </trkpt>
      <trkpt lat="44.46326" lon="6.69164">
        <ele>2668.28</ele>
        <time>2023-01-22T11:17:36Z</time>
      </trkpt>
      <trkpt lat="44.46318" lon="6.69174">
        <ele>2663.95</ele>
        <time>2023-01-22T11:17:43Z</time>
      </trkpt>
      <trkpt lat="44.46318" lon="6.69175">
        <ele>2662.99</ele>
        <time>2023-01-22T11:17:52Z</time>
      </trkpt>
      <trkpt lat="44.46303" lon="6.69193">
        <ele>2658.66</ele>
        <time>2023-01-22T11:18:02Z</time>
      </trkpt>
      <trkpt lat="44.4633" lon="6.69196">
        <ele>2653.86</ele>
        <time>2023-01-22T11:18:11Z</time>
      </trkpt>
      <trkpt lat="44.46343" lon="6.69198">
        <ele>2652.9</ele>
        <time>2023-01-22T11:18:21Z</time>
      </trkpt>
      <trkpt lat="44.46345" lon="6.69199">
        <ele>2652.9</ele>
        <time>2023-01-22T11:18:27Z</time>
      </trkpt>
      <trkpt lat="44.46335" lon="6.69223">
        <ele>2646.65</ele>
        <time>2023-01-22T11:18:36Z</time>
      </trkpt>
      <trkpt lat="44.46333" lon="6.69242">
        <ele>2639.92</ele>
        <time>2023-01-22T11:18:42Z</time>
      </trkpt>
      <trkpt lat="44.46336" lon="6.69243">
        <ele>2636.55</ele>
        <time>2023-01-22T11:18:48Z</time>
      </trkpt>
      <trkpt lat="44.46342" lon="6.69245">
        <ele>2637.03</ele>
        <time>2023-01-22T11:19:05Z</time>
      </trkpt>
      <trkpt lat="44.46345" lon="6.69246">
        <ele>2636.55</ele>
        <time>2023-01-22T11:19:11Z</time>
      </trkpt>
      <trkpt lat="44.46346" lon="6.69257">
        <ele>2632.23</ele>
        <time>2023-01-22T11:19:17Z</time>
      </trkpt>
      <trkpt lat="44.46345" lon="6.69263">
        <ele>2630.3</ele>
        <time>2023-01-22T11:19:20Z</time>
      </trkpt>
      <trkpt lat="44.46347" lon="6.69269">
        <ele>2628.38</ele>
        <time>2023-01-22T11:19:23Z</time>
      </trkpt>
      <trkpt lat="44.46347" lon="6.69283">
        <ele>2622.13</ele>
        <time>2023-01-22T11:19:30Z</time>
      </trkpt>
      <trkpt lat="44.46347" lon="6.69282">
        <ele>2623.09</ele>
        <time>2023-01-22T11:19:46Z</time>
      </trkpt>
      <trkpt lat="44.46347" lon="6.69297">
        <ele>2617.33</ele>
        <time>2023-01-22T11:19:54Z</time>
      </trkpt>
      <trkpt lat="44.46349" lon="6.69314">
        <ele>2611.08</ele>
        <time>2023-01-22T11:20:02Z</time>
      </trkpt>
      <trkpt lat="44.46377" lon="6.6932">
        <ele>2607.71</ele>
        <time>2023-01-22T11:20:15Z</time>
      </trkpt>
      <trkpt lat="44.46407" lon="6.69315">
        <ele>2605.79</ele>
        <time>2023-01-22T11:20:29Z</time>
      </trkpt>
      <trkpt lat="44.46413" lon="6.69312">
        <ele>2605.79</ele>
        <time>2023-01-22T11:20:39Z</time>
      </trkpt>
      <trkpt lat="44.46415" lon="6.69312">
        <ele>2606.27</ele>
        <time>2023-01-22T11:20:58Z</time>
      </trkpt>
      <trkpt lat="44.46416" lon="6.69311">
        <ele>2606.27</ele>
        <time>2023-01-22T11:20:59Z</time>
      </trkpt>
      <trkpt lat="44.46423" lon="6.69296">
        <ele>2604.35</ele>
        <time>2023-01-22T11:21:12Z</time>
      </trkpt>
      <trkpt lat="44.46435" lon="6.69265">
        <ele>2601.46</ele>
        <time>2023-01-22T11:21:23Z</time>
      </trkpt>
      <trkpt lat="44.4645" lon="6.69236">
        <ele>2599.54</ele>
        <time>2023-01-22T11:21:36Z</time>
      </trkpt>
      <trkpt lat="44.46464" lon="6.69194">
        <ele>2596.18</ele>
        <time>2023-01-22T11:21:48Z</time>
      </trkpt>
      <trkpt lat="44.46491" lon="6.6915">
        <ele>2588.97</ele>
        <time>2023-01-22T11:22:00Z</time>
      </trkpt>
      <trkpt lat="44.46528" lon="6.69124">
        <ele>2581.76</ele>
        <time>2023-01-22T11:22:12Z</time>
      </trkpt>
      <trkpt lat="44.46546" lon="6.69113">
        <ele>2577.91</ele>
        <time>2023-01-22T11:22:23Z</time>
      </trkpt>
      <trkpt lat="44.4655" lon="6.69114">
        <ele>2577.43</ele>
        <time>2023-01-22T11:22:27Z</time>
      </trkpt>
      <trkpt lat="44.46549" lon="6.69125">
        <ele>2572.63</ele>
        <time>2023-01-22T11:22:33Z</time>
      </trkpt>
      <trkpt lat="44.46548" lon="6.69124">
        <ele>2572.63</ele>
        <time>2023-01-22T11:22:57Z</time>
      </trkpt>
      <trkpt lat="44.46549" lon="6.69124">
        <ele>2572.63</ele>
        <time>2023-01-22T11:23:02Z</time>
      </trkpt>
      <trkpt lat="44.4656" lon="6.69135">
        <ele>2567.82</ele>
        <time>2023-01-22T11:23:09Z</time>
      </trkpt>
      <trkpt lat="44.46562" lon="6.69134">
        <ele>2567.34</ele>
        <time>2023-01-22T11:23:11Z</time>
      </trkpt>
      <trkpt lat="44.46567" lon="6.69135">
        <ele>2566.86</ele>
        <time>2023-01-22T11:23:14Z</time>
      </trkpt>
      <trkpt lat="44.46567" lon="6.69144">
        <ele>2564.45</ele>
        <time>2023-01-22T11:23:18Z</time>
      </trkpt>
      <trkpt lat="44.46559" lon="6.69154">
        <ele>2561.09</ele>
        <time>2023-01-22T11:23:24Z</time>
      </trkpt>
      <trkpt lat="44.46551" lon="6.69166">
        <ele>2558.21</ele>
        <time>2023-01-22T11:23:31Z</time>
      </trkpt>
      <trkpt lat="44.46565" lon="6.69169">
        <ele>2552.44</ele>
        <time>2023-01-22T11:23:39Z</time>
      </trkpt>
      <trkpt lat="44.46565" lon="6.6917">
        <ele>2552.92</ele>
        <time>2023-01-22T11:23:44Z</time>
      </trkpt>
      <trkpt lat="44.46574" lon="6.69171">
        <ele>2551.96</ele>
        <time>2023-01-22T11:23:54Z</time>
      </trkpt>
      <trkpt lat="44.46574" lon="6.69172">
        <ele>2551.96</ele>
        <time>2023-01-22T11:24:03Z</time>
      </trkpt>
      <trkpt lat="44.46567" lon="6.69181">
        <ele>2549.07</ele>
        <time>2023-01-22T11:24:07Z</time>
      </trkpt>
      <trkpt lat="44.4656" lon="6.6919">
        <ele>2545.71</ele>
        <time>2023-01-22T11:24:10Z</time>
      </trkpt>
      <trkpt lat="44.46547" lon="6.69219">
        <ele>2540.9</ele>
        <time>2023-01-22T11:24:19Z</time>
      </trkpt>
      <trkpt lat="44.46547" lon="6.6922">
        <ele>2540.42</ele>
        <time>2023-01-22T11:24:20Z</time>
      </trkpt>
      <trkpt lat="44.46545" lon="6.69229">
        <ele>2537.54</ele>
        <time>2023-01-22T11:24:28Z</time>
      </trkpt>
      <trkpt lat="44.46544" lon="6.69239">
        <ele>2535.61</ele>
        <time>2023-01-22T11:24:35Z</time>
      </trkpt>
      <trkpt lat="44.46551" lon="6.6924">
        <ele>2532.73</ele>
        <time>2023-01-22T11:24:39Z</time>
      </trkpt>
      <trkpt lat="44.46564" lon="6.69231">
        <ele>2530.81</ele>
        <time>2023-01-22T11:24:46Z</time>
      </trkpt>
      <trkpt lat="44.46571" lon="6.69244">
        <ele>2526.48</ele>
        <time>2023-01-22T11:24:52Z</time>
      </trkpt>
      <trkpt lat="44.46578" lon="6.6924">
        <ele>2525.04</ele>
        <time>2023-01-22T11:24:55Z</time>
      </trkpt>
      <trkpt lat="44.46596" lon="6.69224">
        <ele>2521.68</ele>
        <time>2023-01-22T11:25:06Z</time>
      </trkpt>
      <trkpt lat="44.46595" lon="6.69224">
        <ele>2521.68</ele>
        <time>2023-01-22T11:25:07Z</time>
      </trkpt>
      <trkpt lat="44.46603" lon="6.69237">
        <ele>2516.39</ele>
        <time>2023-01-22T11:25:14Z</time>
      </trkpt>
      <trkpt lat="44.46605" lon="6.69235">
        <ele>2515.43</ele>
        <time>2023-01-22T11:25:16Z</time>
      </trkpt>
      <trkpt lat="44.46614" lon="6.69234">
        <ele>2511.58</ele>
        <time>2023-01-22T11:25:24Z</time>
      </trkpt>
      <trkpt lat="44.4661" lon="6.69252">
        <ele>2507.26</ele>
        <time>2023-01-22T11:25:31Z</time>
      </trkpt>
      <trkpt lat="44.4661" lon="6.69257">
        <ele>2506.29</ele>
        <time>2023-01-22T11:25:33Z</time>
      </trkpt>
      <trkpt lat="44.46626" lon="6.69252">
        <ele>2502.93</ele>
        <time>2023-01-22T11:25:41Z</time>
      </trkpt>
      <trkpt lat="44.46633" lon="6.69249">
        <ele>2501.49</ele>
        <time>2023-01-22T11:25:56Z</time>
      </trkpt>
      <trkpt lat="44.46639" lon="6.69261">
        <ele>2496.68</ele>
        <time>2023-01-22T11:26:02Z</time>
      </trkpt>
      <trkpt lat="44.4664" lon="6.69259">
        <ele>2496.2</ele>
        <time>2023-01-22T11:26:11Z</time>
      </trkpt>
      <trkpt lat="44.46641" lon="6.6927">
        <ele>2492.36</ele>
        <time>2023-01-22T11:26:18Z</time>
      </trkpt>
      <trkpt lat="44.46646" lon="6.69276">
        <ele>2489.95</ele>
        <time>2023-01-22T11:26:22Z</time>
      </trkpt>
      <trkpt lat="44.46649" lon="6.69273">
        <ele>2488.03</ele>
        <time>2023-01-22T11:26:28Z</time>
      </trkpt>
      <trkpt lat="44.4665" lon="6.69282">
        <ele>2485.15</ele>
        <time>2023-01-22T11:26:32Z</time>
      </trkpt>
      <trkpt lat="44.46647" lon="6.69311">
        <ele>2479.86</ele>
        <time>2023-01-22T11:26:43Z</time>
      </trkpt>
      <trkpt lat="44.4664" lon="6.69337">
        <ele>2474.09</ele>
        <time>2023-01-22T11:26:53Z</time>
      </trkpt>
      <trkpt lat="44.46651" lon="6.69335">
        <ele>2468.8</ele>
        <time>2023-01-22T11:26:59Z</time>
      </trkpt>
      <trkpt lat="44.46653" lon="6.69333">
        <ele>2468.32</ele>
        <time>2023-01-22T11:27:00Z</time>
      </trkpt>
      <trkpt lat="44.46674" lon="6.69313">
        <ele>2463.52</ele>
        <time>2023-01-22T11:27:09Z</time>
      </trkpt>
      <trkpt lat="44.46687" lon="6.69308">
        <ele>2460.63</ele>
        <time>2023-01-22T11:27:16Z</time>
      </trkpt>
      <trkpt lat="44.46687" lon="6.69308">
        <ele>2461.59</ele>
        <time>2023-01-22T11:27:19Z</time>
      </trkpt>
      <trkpt lat="44.46685" lon="6.69321">
        <ele>2458.71</ele>
        <time>2023-01-22T11:27:26Z</time>
      </trkpt>
      <trkpt lat="44.46693" lon="6.69326">
        <ele>2455.82</ele>
        <time>2023-01-22T11:27:31Z</time>
      </trkpt>
      <trkpt lat="44.46698" lon="6.69333">
        <ele>2451.5</ele>
        <time>2023-01-22T11:27:36Z</time>
      </trkpt>
      <trkpt lat="44.467" lon="6.69341">
        <ele>2447.17</ele>
        <time>2023-01-22T11:27:42Z</time>
      </trkpt>
      <trkpt lat="44.46712" lon="6.69343">
        <ele>2443.81</ele>
        <time>2023-01-22T11:27:50Z</time>
      </trkpt>
      <trkpt lat="44.46718" lon="6.69343">
        <ele>2442.37</ele>
        <time>2023-01-22T11:27:59Z</time>
      </trkpt>
      <trkpt lat="44.46724" lon="6.69353">
        <ele>2437.56</ele>
        <time>2023-01-22T11:28:06Z</time>
      </trkpt>
      <trkpt lat="44.46725" lon="6.69353">
        <ele>2437.08</ele>
        <time>2023-01-22T11:28:10Z</time>
      </trkpt>
      <trkpt lat="44.46725" lon="6.69372">
        <ele>2430.35</ele>
        <time>2023-01-22T11:28:17Z</time>
      </trkpt>
      <trkpt lat="44.46735" lon="6.69381">
        <ele>2428.43</ele>
        <time>2023-01-22T11:28:22Z</time>
      </trkpt>
      <trkpt lat="44.46738" lon="6.69394">
        <ele>2424.58</ele>
        <time>2023-01-22T11:28:27Z</time>
      </trkpt>
      <trkpt lat="44.46739" lon="6.69392">
        <ele>2425.06</ele>
        <time>2023-01-22T11:28:39Z</time>
      </trkpt>
      <trkpt lat="44.46739" lon="6.69391">
        <ele>2424.1</ele>
        <time>2023-01-22T11:28:51Z</time>
      </trkpt>
      <trkpt lat="44.4674" lon="6.69392">
        <ele>2424.1</ele>
        <time>2023-01-22T11:28:52Z</time>
      </trkpt>
      <trkpt lat="44.4674" lon="6.69419">
        <ele>2421.7</ele>
        <time>2023-01-22T11:28:59Z</time>
      </trkpt>
      <trkpt lat="44.46739" lon="6.69438">
        <ele>2420.74</ele>
        <time>2023-01-22T11:29:01Z</time>
      </trkpt>
      <trkpt lat="44.46746" lon="6.69472">
        <ele>2418.33</ele>
        <time>2023-01-22T11:29:08Z</time>
      </trkpt>
      <trkpt lat="44.46743" lon="6.69489">
        <ele>2414.01</ele>
        <time>2023-01-22T11:29:14Z</time>
      </trkpt>
      <trkpt lat="44.46737" lon="6.69511">
        <ele>2411.6</ele>
        <time>2023-01-22T11:29:20Z</time>
      </trkpt>
      <trkpt lat="44.46744" lon="6.69522">
        <ele>2407.28</ele>
        <time>2023-01-22T11:29:27Z</time>
      </trkpt>
      <trkpt lat="44.46742" lon="6.6953">
        <ele>2406.8</ele>
        <time>2023-01-22T11:29:30Z</time>
      </trkpt>
      <trkpt lat="44.46748" lon="6.69535">
        <ele>2403.91</ele>
        <time>2023-01-22T11:29:34Z</time>
      </trkpt>
      <trkpt lat="44.4675" lon="6.69548">
        <ele>2400.07</ele>
        <time>2023-01-22T11:29:39Z</time>
      </trkpt>
      <trkpt lat="44.4675" lon="6.69579">
        <ele>2393.82</ele>
        <time>2023-01-22T11:29:49Z</time>
      </trkpt>
      <trkpt lat="44.4675" lon="6.69578">
        <ele>2393.82</ele>
        <time>2023-01-22T11:30:10Z</time>
      </trkpt>
      <trkpt lat="44.4675" lon="6.69577">
        <ele>2393.82</ele>
        <time>2023-01-22T11:30:23Z</time>
      </trkpt>
      <trkpt lat="44.46759" lon="6.69593">
        <ele>2389.49</ele>
        <time>2023-01-22T11:30:31Z</time>
      </trkpt>
      <trkpt lat="44.46769" lon="6.69602">
        <ele>2384.21</ele>
        <time>2023-01-22T11:30:36Z</time>
      </trkpt>
      <trkpt lat="44.46779" lon="6.69613">
        <ele>2380.36</ele>
        <time>2023-01-22T11:30:42Z</time>
      </trkpt>
      <trkpt lat="44.46777" lon="6.6962">
        <ele>2378.92</ele>
        <time>2023-01-22T11:30:45Z</time>
      </trkpt>
      <trkpt lat="44.4677" lon="6.69654">
        <ele>2374.11</ele>
        <time>2023-01-22T11:30:56Z</time>
      </trkpt>
      <trkpt lat="44.46758" lon="6.69689">
        <ele>2370.75</ele>
        <time>2023-01-22T11:31:05Z</time>
      </trkpt>
      <trkpt lat="44.46753" lon="6.69706">
        <ele>2369.79</ele>
        <time>2023-01-22T11:31:15Z</time>
      </trkpt>
      <trkpt lat="44.46753" lon="6.69706">
        <ele>2370.27</ele>
        <time>2023-01-22T11:31:16Z</time>
      </trkpt>
      <trkpt lat="44.46754" lon="6.69708">
        <ele>2368.83</ele>
        <time>2023-01-22T11:31:28Z</time>
      </trkpt>
      <trkpt lat="44.46754" lon="6.69708">
        <ele>2368.83</ele>
        <time>2023-01-22T11:31:30Z</time>
      </trkpt>
      <trkpt lat="44.46763" lon="6.69706">
        <ele>2367.86</ele>
        <time>2023-01-22T11:31:37Z</time>
      </trkpt>
      <trkpt lat="44.46765" lon="6.69715">
        <ele>2366.42</ele>
        <time>2023-01-22T11:31:46Z</time>
      </trkpt>
      <trkpt lat="44.46765" lon="6.69717">
        <ele>2367.38</ele>
        <time>2023-01-22T11:31:55Z</time>
      </trkpt>
      <trkpt lat="44.46768" lon="6.69734">
        <ele>2363.54</ele>
        <time>2023-01-22T11:32:07Z</time>
      </trkpt>
      <trkpt lat="44.46767" lon="6.69735">
        <ele>2363.54</ele>
        <time>2023-01-22T11:32:23Z</time>
      </trkpt>
      <trkpt lat="44.46765" lon="6.69733">
        <ele>2363.54</ele>
        <time>2023-01-22T11:32:39Z</time>
      </trkpt>
      <trkpt lat="44.46767" lon="6.69733">
        <ele>2362.1</ele>
        <time>2023-01-22T11:32:59Z</time>
      </trkpt>
      <trkpt lat="44.46769" lon="6.69737">
        <ele>2363.54</ele>
        <time>2023-01-22T11:33:10Z</time>
      </trkpt>
      <trkpt lat="44.46769" lon="6.69741">
        <ele>2363.06</ele>
        <time>2023-01-22T11:33:14Z</time>
      </trkpt>
      <trkpt lat="44.46766" lon="6.69747">
        <ele>2361.14</ele>
        <time>2023-01-22T11:33:21Z</time>
      </trkpt>
      <trkpt lat="44.46764" lon="6.69751">
        <ele>2361.62</ele>
        <time>2023-01-22T11:33:25Z</time>
      </trkpt>
      <trkpt lat="44.46751" lon="6.69766">
        <ele>2358.25</ele>
        <time>2023-01-22T11:33:33Z</time>
      </trkpt>
      <trkpt lat="44.46757" lon="6.69777">
        <ele>2353.93</ele>
        <time>2023-01-22T11:33:40Z</time>
      </trkpt>
      <trkpt lat="44.46772" lon="6.69801">
        <ele>2346.23</ele>
        <time>2023-01-22T11:33:48Z</time>
      </trkpt>
      <trkpt lat="44.46779" lon="6.69809">
        <ele>2342.39</ele>
        <time>2023-01-22T11:33:53Z</time>
      </trkpt>
      <trkpt lat="44.46779" lon="6.69809">
        <ele>2345.75</ele>
        <time>2023-01-22T11:34:11Z</time>
      </trkpt>
      <trkpt lat="44.46788" lon="6.6981">
        <ele>2343.35</ele>
        <time>2023-01-22T11:34:16Z</time>
      </trkpt>
      <trkpt lat="44.46801" lon="6.69811">
        <ele>2340.95</ele>
        <time>2023-01-22T11:34:24Z</time>
      </trkpt>
      <trkpt lat="44.4681" lon="6.69819">
        <ele>2335.66</ele>
        <time>2023-01-22T11:34:30Z</time>
      </trkpt>
      <trkpt lat="44.46813" lon="6.69828">
        <ele>2333.26</ele>
        <time>2023-01-22T11:34:33Z</time>
      </trkpt>
      <trkpt lat="44.46824" lon="6.69841">
        <ele>2327.49</ele>
        <time>2023-01-22T11:34:41Z</time>
      </trkpt>
      <trkpt lat="44.46825" lon="6.6984">
        <ele>2327.01</ele>
        <time>2023-01-22T11:34:42Z</time>
      </trkpt>
      <trkpt lat="44.46833" lon="6.6983">
        <ele>2325.09</ele>
        <time>2023-01-22T11:34:50Z</time>
      </trkpt>
      <trkpt lat="44.46833" lon="6.69834">
        <ele>2323.64</ele>
        <time>2023-01-22T11:34:57Z</time>
      </trkpt>
      <trkpt lat="44.46832" lon="6.69845">
        <ele>2321.24</ele>
        <time>2023-01-22T11:35:02Z</time>
      </trkpt>
      <trkpt lat="44.46832" lon="6.69849">
        <ele>2320.76</ele>
        <time>2023-01-22T11:35:04Z</time>
      </trkpt>
      <trkpt lat="44.46835" lon="6.69853">
        <ele>2318.84</ele>
        <time>2023-01-22T11:35:07Z</time>
      </trkpt>
      <trkpt lat="44.46848" lon="6.69855">
        <ele>2314.51</ele>
        <time>2023-01-22T11:35:15Z</time>
      </trkpt>
      <trkpt lat="44.46859" lon="6.69865">
        <ele>2310.19</ele>
        <time>2023-01-22T11:35:20Z</time>
      </trkpt>
      <trkpt lat="44.4686" lon="6.6987">
        <ele>2308.74</ele>
        <time>2023-01-22T11:35:23Z</time>
      </trkpt>
      <trkpt lat="44.46862" lon="6.69881">
        <ele>2306.34</ele>
        <time>2023-01-22T11:35:29Z</time>
      </trkpt>
      <trkpt lat="44.46873" lon="6.69894">
        <ele>2302.98</ele>
        <time>2023-01-22T11:35:37Z</time>
      </trkpt>
      <trkpt lat="44.46881" lon="6.69912">
        <ele>2299.61</ele>
        <time>2023-01-22T11:35:42Z</time>
      </trkpt>
      <trkpt lat="44.46873" lon="6.69954">
        <ele>2294.8</ele>
        <time>2023-01-22T11:35:53Z</time>
      </trkpt>
      <trkpt lat="44.46866" lon="6.69969">
        <ele>2290.96</ele>
        <time>2023-01-22T11:36:02Z</time>
      </trkpt>
      <trkpt lat="44.46867" lon="6.69968">
        <ele>2291.44</ele>
        <time>2023-01-22T11:36:08Z</time>
      </trkpt>
      <trkpt lat="44.46863" lon="6.69979">
        <ele>2288.56</ele>
        <time>2023-01-22T11:36:19Z</time>
      </trkpt>
      <trkpt lat="44.46873" lon="6.6999">
        <ele>2283.27</ele>
        <time>2023-01-22T11:36:26Z</time>
      </trkpt>
      <trkpt lat="44.46881" lon="6.69994">
        <ele>2277.02</ele>
        <time>2023-01-22T11:36:31Z</time>
      </trkpt>
      <trkpt lat="44.46881" lon="6.69994">
        <ele>2276.06</ele>
        <time>2023-01-22T11:36:35Z</time>
      </trkpt>
      <trkpt lat="44.46895" lon="6.70014">
        <ele>2272.69</ele>
        <time>2023-01-22T11:36:43Z</time>
      </trkpt>
      <trkpt lat="44.46907" lon="6.70038">
        <ele>2269.33</ele>
        <time>2023-01-22T11:36:51Z</time>
      </trkpt>
      <trkpt lat="44.46907" lon="6.70037">
        <ele>2268.85</ele>
        <time>2023-01-22T11:36:55Z</time>
      </trkpt>
      <trkpt lat="44.46912" lon="6.70039">
        <ele>2269.81</ele>
        <time>2023-01-22T11:37:05Z</time>
      </trkpt>
      <trkpt lat="44.46913" lon="6.70034">
        <ele>2269.33</ele>
        <time>2023-01-22T11:37:17Z</time>
      </trkpt>
      <trkpt lat="44.46913" lon="6.70035">
        <ele>2269.33</ele>
        <time>2023-01-22T11:37:27Z</time>
      </trkpt>
      <trkpt lat="44.46913" lon="6.70042">
        <ele>2272.21</ele>
        <time>2023-01-22T11:37:58Z</time>
      </trkpt>
      <trkpt lat="44.46913" lon="6.70041">
        <ele>2272.21</ele>
        <time>2023-01-22T11:38:11Z</time>
      </trkpt>
      <trkpt lat="44.46912" lon="6.70042">
        <ele>2270.77</ele>
        <time>2023-01-22T11:38:25Z</time>
      </trkpt>
      <trkpt lat="44.46913" lon="6.70043">
        <ele>2269.81</ele>
        <time>2023-01-22T11:38:42Z</time>
      </trkpt>
      <trkpt lat="44.46912" lon="6.70044">
        <ele>2269.81</ele>
        <time>2023-01-22T11:38:54Z</time>
      </trkpt>
      <trkpt lat="44.46912" lon="6.70044">
        <ele>2269.33</ele>
        <time>2023-01-22T11:39:04Z</time>
      </trkpt>
      <trkpt lat="44.46911" lon="6.70044">
        <ele>2269.33</ele>
        <time>2023-01-22T11:39:29Z</time>
      </trkpt>
      <trkpt lat="44.46912" lon="6.70044">
        <ele>2269.33</ele>
        <time>2023-01-22T11:39:56Z</time>
      </trkpt>
      <trkpt lat="44.46912" lon="6.70044">
        <ele>2269.33</ele>
        <time>2023-01-22T11:40:18Z</time>
      </trkpt>
      <trkpt lat="44.46913" lon="6.70044">
        <ele>2268.85</ele>
        <time>2023-01-22T11:40:35Z</time>
      </trkpt>
      <trkpt lat="44.46918" lon="6.70046">
        <ele>2267.89</ele>
        <time>2023-01-22T11:40:45Z</time>
      </trkpt>
      <trkpt lat="44.46934" lon="6.70066">
        <ele>2263.56</ele>
        <time>2023-01-22T11:40:54Z</time>
      </trkpt>
      <trkpt lat="44.46947" lon="6.70088">
        <ele>2259.24</ele>
        <time>2023-01-22T11:41:00Z</time>
      </trkpt>
      <trkpt lat="44.4696" lon="6.70097">
        <ele>2255.39</ele>
        <time>2023-01-22T11:41:04Z</time>
      </trkpt>
      <trkpt lat="44.46978" lon="6.70103">
        <ele>2252.03</ele>
        <time>2023-01-22T11:41:13Z</time>
      </trkpt>
      <trkpt lat="44.46983" lon="6.70109">
        <ele>2251.54</ele>
        <time>2023-01-22T11:41:24Z</time>
      </trkpt>
      <trkpt lat="44.47004" lon="6.70104">
        <ele>2245.78</ele>
        <time>2023-01-22T11:41:32Z</time>
      </trkpt>
      <trkpt lat="44.47009" lon="6.70102">
        <ele>2244.82</ele>
        <time>2023-01-22T11:41:33Z</time>
      </trkpt>
      <trkpt lat="44.47018" lon="6.70098">
        <ele>2241.45</ele>
        <time>2023-01-22T11:41:39Z</time>
      </trkpt>
      <trkpt lat="44.47024" lon="6.701">
        <ele>2240.49</ele>
        <time>2023-01-22T11:41:43Z</time>
      </trkpt>
      <trkpt lat="44.47027" lon="6.70108">
        <ele>2237.13</ele>
        <time>2023-01-22T11:41:50Z</time>
      </trkpt>
      <trkpt lat="44.47027" lon="6.70112">
        <ele>2235.68</ele>
        <time>2023-01-22T11:42:06Z</time>
      </trkpt>
      <trkpt lat="44.47028" lon="6.70117">
        <ele>2234.72</ele>
        <time>2023-01-22T11:42:09Z</time>
      </trkpt>
      <trkpt lat="44.47033" lon="6.70115">
        <ele>2232.32</ele>
        <time>2023-01-22T11:42:17Z</time>
      </trkpt>
      <trkpt lat="44.47035" lon="6.70114">
        <ele>2231.84</ele>
        <time>2023-01-22T11:42:21Z</time>
      </trkpt>
      <trkpt lat="44.47043" lon="6.70109">
        <ele>2227.51</ele>
        <time>2023-01-22T11:42:26Z</time>
      </trkpt>
      <trkpt lat="44.47049" lon="6.7011">
        <ele>2225.59</ele>
        <time>2023-01-22T11:42:29Z</time>
      </trkpt>
      <trkpt lat="44.47054" lon="6.70108">
        <ele>2223.67</ele>
        <time>2023-01-22T11:42:33Z</time>
      </trkpt>
      <trkpt lat="44.47058" lon="6.70115">
        <ele>2221.74</ele>
        <time>2023-01-22T11:42:36Z</time>
      </trkpt>
      <trkpt lat="44.47066" lon="6.70119">
        <ele>2217.42</ele>
        <time>2023-01-22T11:42:41Z</time>
      </trkpt>
      <trkpt lat="44.47073" lon="6.70128">
        <ele>2213.09</ele>
        <time>2023-01-22T11:42:46Z</time>
      </trkpt>
      <trkpt lat="44.47078" lon="6.70137">
        <ele>2210.21</ele>
        <time>2023-01-22T11:42:49Z</time>
      </trkpt>
      <trkpt lat="44.47082" lon="6.70135">
        <ele>2205.88</ele>
        <time>2023-01-22T11:42:59Z</time>
      </trkpt>
      <trkpt lat="44.47081" lon="6.70136">
        <ele>2207.81</ele>
        <time>2023-01-22T11:43:15Z</time>
      </trkpt>
      <trkpt lat="44.47094" lon="6.70146">
        <ele>2205.4</ele>
        <time>2023-01-22T11:43:23Z</time>
      </trkpt>
      <trkpt lat="44.47095" lon="6.70146">
        <ele>2205.4</ele>
        <time>2023-01-22T11:43:28Z</time>
      </trkpt>
      <trkpt lat="44.47099" lon="6.70151">
        <ele>2203.96</ele>
        <time>2023-01-22T11:43:36Z</time>
      </trkpt>
      <trkpt lat="44.47111" lon="6.70151">
        <ele>2199.15</ele>
        <time>2023-01-22T11:43:45Z</time>
      </trkpt>
      <trkpt lat="44.47117" lon="6.70157">
        <ele>2196.27</ele>
        <time>2023-01-22T11:43:52Z</time>
      </trkpt>
      <trkpt lat="44.47118" lon="6.70157">
        <ele>2195.79</ele>
        <time>2023-01-22T11:43:53Z</time>
      </trkpt>
      <trkpt lat="44.47128" lon="6.70165">
        <ele>2190.02</ele>
        <time>2023-01-22T11:44:00Z</time>
      </trkpt>
      <trkpt lat="44.4713" lon="6.70166">
        <ele>2187.14</ele>
        <time>2023-01-22T11:44:06Z</time>
      </trkpt>
      <trkpt lat="44.47136" lon="6.70172">
        <ele>2185.69</ele>
        <time>2023-01-22T11:44:09Z</time>
      </trkpt>
      <trkpt lat="44.47142" lon="6.70175">
        <ele>2181.37</ele>
        <time>2023-01-22T11:44:17Z</time>
      </trkpt>
      <trkpt lat="44.47142" lon="6.70176">
        <ele>2180.89</ele>
        <time>2023-01-22T11:44:20Z</time>
      </trkpt>
      <trkpt lat="44.47138" lon="6.70186">
        <ele>2179.45</ele>
        <time>2023-01-22T11:44:24Z</time>
      </trkpt>
      <trkpt lat="44.47153" lon="6.70207">
        <ele>2174.64</ele>
        <time>2023-01-22T11:44:31Z</time>
      </trkpt>
      <trkpt lat="44.47155" lon="6.70221">
        <ele>2172.24</ele>
        <time>2023-01-22T11:44:35Z</time>
      </trkpt>
      <trkpt lat="44.47169" lon="6.70241">
        <ele>2162.62</ele>
        <time>2023-01-22T11:44:42Z</time>
      </trkpt>
      <trkpt lat="44.47175" lon="6.70253">
        <ele>2158.78</ele>
        <time>2023-01-22T11:44:45Z</time>
      </trkpt>
      <trkpt lat="44.47181" lon="6.70257">
        <ele>2153.49</ele>
        <time>2023-01-22T11:44:54Z</time>
      </trkpt>
      <trkpt lat="44.47178" lon="6.70254">
        <ele>2158.3</ele>
        <time>2023-01-22T11:45:11Z</time>
      </trkpt>
      <trkpt lat="44.47177" lon="6.70252">
        <ele>2159.74</ele>
        <time>2023-01-22T11:45:27Z</time>
      </trkpt>
      <trkpt lat="44.47177" lon="6.70254">
        <ele>2157.34</ele>
        <time>2023-01-22T11:45:38Z</time>
      </trkpt>
      <trkpt lat="44.47168" lon="6.70275">
        <ele>2154.45</ele>
        <time>2023-01-22T11:45:47Z</time>
      </trkpt>
      <trkpt lat="44.47165" lon="6.70294">
        <ele>2151.57</ele>
        <time>2023-01-22T11:45:57Z</time>
      </trkpt>
      <trkpt lat="44.47175" lon="6.70307">
        <ele>2148.2</ele>
        <time>2023-01-22T11:46:03Z</time>
      </trkpt>
      <trkpt lat="44.47181" lon="6.70324">
        <ele>2143.88</ele>
        <time>2023-01-22T11:46:09Z</time>
      </trkpt>
      <trkpt lat="44.47185" lon="6.70328">
        <ele>2141.47</ele>
        <time>2023-01-22T11:46:11Z</time>
      </trkpt>
      <trkpt lat="44.47189" lon="6.70333">
        <ele>2137.63</ele>
        <time>2023-01-22T11:46:21Z</time>
      </trkpt>
      <trkpt lat="44.4719" lon="6.70334">
        <ele>2139.07</ele>
        <time>2023-01-22T11:46:36Z</time>
      </trkpt>
      <trkpt lat="44.47189" lon="6.70336">
        <ele>2139.55</ele>
        <time>2023-01-22T11:46:45Z</time>
      </trkpt>
      <trkpt lat="44.47184" lon="6.70341">
        <ele>2138.11</ele>
        <time>2023-01-22T11:46:52Z</time>
      </trkpt>
      <trkpt lat="44.47186" lon="6.70356">
        <ele>2135.71</ele>
        <time>2023-01-22T11:46:59Z</time>
      </trkpt>
      <trkpt lat="44.47178" lon="6.70361">
        <ele>2134.26</ele>
        <time>2023-01-22T11:47:08Z</time>
      </trkpt>
      <trkpt lat="44.47169" lon="6.70368">
        <ele>2133.3</ele>
        <time>2023-01-22T11:47:13Z</time>
      </trkpt>
      <trkpt lat="44.47177" lon="6.70378">
        <ele>2130.42</ele>
        <time>2023-01-22T11:47:20Z</time>
      </trkpt>
      <trkpt lat="44.47185" lon="6.70379">
        <ele>2127.53</ele>
        <time>2023-01-22T11:47:25Z</time>
      </trkpt>
      <trkpt lat="44.47194" lon="6.70409">
        <ele>2121.77</ele>
        <time>2023-01-22T11:47:33Z</time>
      </trkpt>
      <trkpt lat="44.47195" lon="6.70419">
        <ele>2116</ele>
        <time>2023-01-22T11:47:41Z</time>
      </trkpt>
      <trkpt lat="44.47197" lon="6.70417">
        <ele>2116.96</ele>
        <time>2023-01-22T11:47:57Z</time>
      </trkpt>
      <trkpt lat="44.47195" lon="6.70418">
        <ele>2117.44</ele>
        <time>2023-01-22T11:48:10Z</time>
      </trkpt>
      <trkpt lat="44.47183" lon="6.70438">
        <ele>2113.12</ele>
        <time>2023-01-22T11:48:17Z</time>
      </trkpt>
      <trkpt lat="44.47175" lon="6.7045">
        <ele>2109.27</ele>
        <time>2023-01-22T11:48:21Z</time>
      </trkpt>
      <trkpt lat="44.47172" lon="6.70469">
        <ele>2106.39</ele>
        <time>2023-01-22T11:48:26Z</time>
      </trkpt>
      <trkpt lat="44.4717" lon="6.70483">
        <ele>2103.5</ele>
        <time>2023-01-22T11:48:34Z</time>
      </trkpt>
      <trkpt lat="44.47166" lon="6.70498">
        <ele>2102.06</ele>
        <time>2023-01-22T11:48:45Z</time>
      </trkpt>
      <trkpt lat="44.47166" lon="6.70499">
        <ele>2101.1</ele>
        <time>2023-01-22T11:48:50Z</time>
      </trkpt>
      <trkpt lat="44.47168" lon="6.70506">
        <ele>2099.18</ele>
        <time>2023-01-22T11:49:00Z</time>
      </trkpt>
      <trkpt lat="44.47168" lon="6.70506">
        <ele>2099.18</ele>
        <time>2023-01-22T11:49:01Z</time>
      </trkpt>
      <trkpt lat="44.47164" lon="6.70518">
        <ele>2096.77</ele>
        <time>2023-01-22T11:49:08Z</time>
      </trkpt>
      <trkpt lat="44.47163" lon="6.70518">
        <ele>2096.29</ele>
        <time>2023-01-22T11:49:09Z</time>
      </trkpt>
      <trkpt lat="44.47156" lon="6.7052">
        <ele>2093.41</ele>
        <time>2023-01-22T11:49:14Z</time>
      </trkpt>
      <trkpt lat="44.47149" lon="6.70529">
        <ele>2090.52</ele>
        <time>2023-01-22T11:49:18Z</time>
      </trkpt>
      <trkpt lat="44.47152" lon="6.7054">
        <ele>2087.16</ele>
        <time>2023-01-22T11:49:25Z</time>
      </trkpt>
      <trkpt lat="44.47152" lon="6.70543">
        <ele>2084.76</ele>
        <time>2023-01-22T11:49:28Z</time>
      </trkpt>
      <trkpt lat="44.47154" lon="6.70556">
        <ele>2080.43</ele>
        <time>2023-01-22T11:49:35Z</time>
      </trkpt>
      <trkpt lat="44.47153" lon="6.70561">
        <ele>2080.43</ele>
        <time>2023-01-22T11:49:48Z</time>
      </trkpt>
      <trkpt lat="44.47151" lon="6.70562">
        <ele>2083.79</ele>
        <time>2023-01-22T11:50:16Z</time>
      </trkpt>
      <trkpt lat="44.4715" lon="6.70564">
        <ele>2083.31</ele>
        <time>2023-01-22T11:50:22Z</time>
      </trkpt>
      <trkpt lat="44.47146" lon="6.70567">
        <ele>2081.87</ele>
        <time>2023-01-22T11:50:26Z</time>
      </trkpt>
      <trkpt lat="44.47152" lon="6.70582">
        <ele>2076.1</ele>
        <time>2023-01-22T11:50:32Z</time>
      </trkpt>
      <trkpt lat="44.4716" lon="6.70609">
        <ele>2069.86</ele>
        <time>2023-01-22T11:50:37Z</time>
      </trkpt>
      <trkpt lat="44.47165" lon="6.70629">
        <ele>2062.65</ele>
        <time>2023-01-22T11:50:42Z</time>
      </trkpt>
      <trkpt lat="44.47168" lon="6.70628">
        <ele>2058.8</ele>
        <time>2023-01-22T11:50:52Z</time>
      </trkpt>
      <trkpt lat="44.47167" lon="6.70628">
        <ele>2058.8</ele>
        <time>2023-01-22T11:51:12Z</time>
      </trkpt>
      <trkpt lat="44.47168" lon="6.7063">
        <ele>2057.84</ele>
        <time>2023-01-22T11:51:37Z</time>
      </trkpt>
      <trkpt lat="44.47168" lon="6.70635">
        <ele>2057.84</ele>
        <time>2023-01-22T11:52:00Z</time>
      </trkpt>
      <trkpt lat="44.47169" lon="6.70636">
        <ele>2057.84</ele>
        <time>2023-01-22T11:52:04Z</time>
      </trkpt>
      <trkpt lat="44.4718" lon="6.70658">
        <ele>2052.07</ele>
        <time>2023-01-22T11:52:12Z</time>
      </trkpt>
      <trkpt lat="44.47185" lon="6.70688">
        <ele>2044.86</ele>
        <time>2023-01-22T11:52:17Z</time>
      </trkpt>
      <trkpt lat="44.47192" lon="6.70712">
        <ele>2037.65</ele>
        <time>2023-01-22T11:52:22Z</time>
      </trkpt>
      <trkpt lat="44.47192" lon="6.70728">
        <ele>2031.4</ele>
        <time>2023-01-22T11:52:27Z</time>
      </trkpt>
      <trkpt lat="44.47193" lon="6.70723">
        <ele>2028.52</ele>
        <time>2023-01-22T11:52:41Z</time>
      </trkpt>
      <trkpt lat="44.47194" lon="6.70719">
        <ele>2027.56</ele>
        <time>2023-01-22T11:53:00Z</time>
      </trkpt>
      <trkpt lat="44.47194" lon="6.70718">
        <ele>2025.64</ele>
        <time>2023-01-22T11:53:25Z</time>
      </trkpt>
      <trkpt lat="44.47194" lon="6.70718">
        <ele>2026.12</ele>
        <time>2023-01-22T11:53:46Z</time>
      </trkpt>
      <trkpt lat="44.47194" lon="6.70718">
        <ele>2025.64</ele>
        <time>2023-01-22T11:54:04Z</time>
      </trkpt>
      <trkpt lat="44.47193" lon="6.70718">
        <ele>2023.71</ele>
        <time>2023-01-22T11:54:33Z</time>
      </trkpt>
      <trkpt lat="44.47194" lon="6.70717">
        <ele>2024.19</ele>
        <time>2023-01-22T11:54:59Z</time>
      </trkpt>
      <trkpt lat="44.47194" lon="6.70718">
        <ele>2024.19</ele>
        <time>2023-01-22T11:55:03Z</time>
      </trkpt>
      <trkpt lat="44.47196" lon="6.7074">
        <ele>2021.31</ele>
        <time>2023-01-22T11:55:08Z</time>
      </trkpt>
      <trkpt lat="44.47202" lon="6.70778">
        <ele>2014.58</ele>
        <time>2023-01-22T11:55:17Z</time>
      </trkpt>
      <trkpt lat="44.47203" lon="6.70777">
        <ele>2014.58</ele>
        <time>2023-01-22T11:55:39Z</time>
      </trkpt>
      <trkpt lat="44.47203" lon="6.70778">
        <ele>2014.58</ele>
        <time>2023-01-22T11:55:41Z</time>
      </trkpt>
      <trkpt lat="44.47208" lon="6.70791">
        <ele>2011.22</ele>
        <time>2023-01-22T11:55:48Z</time>
      </trkpt>
      <trkpt lat="44.47208" lon="6.70792">
        <ele>2010.73</ele>
        <time>2023-01-22T11:55:50Z</time>
      </trkpt>
      <trkpt lat="44.47205" lon="6.70807">
        <ele>2006.89</ele>
        <time>2023-01-22T11:55:57Z</time>
      </trkpt>
      <trkpt lat="44.47196" lon="6.70822">
        <ele>2001.12</ele>
        <time>2023-01-22T11:56:04Z</time>
      </trkpt>
      <trkpt lat="44.47193" lon="6.70836">
        <ele>1994.87</ele>
        <time>2023-01-22T11:56:11Z</time>
      </trkpt>
      <trkpt lat="44.47194" lon="6.70836">
        <ele>1994.39</ele>
        <time>2023-01-22T11:56:12Z</time>
      </trkpt>
      <trkpt lat="44.47196" lon="6.70848">
        <ele>1992.47</ele>
        <time>2023-01-22T11:56:16Z</time>
      </trkpt>
      <trkpt lat="44.47195" lon="6.70856">
        <ele>1990.55</ele>
        <time>2023-01-22T11:56:20Z</time>
      </trkpt>
      <trkpt lat="44.47192" lon="6.70865">
        <ele>1989.1</ele>
        <time>2023-01-22T11:56:28Z</time>
      </trkpt>
      <trkpt lat="44.47192" lon="6.70866">
        <ele>1988.62</ele>
        <time>2023-01-22T11:56:35Z</time>
      </trkpt>
      <trkpt lat="44.4719" lon="6.7087">
        <ele>1988.14</ele>
        <time>2023-01-22T11:56:39Z</time>
      </trkpt>
      <trkpt lat="44.47189" lon="6.70871">
        <ele>1987.66</ele>
        <time>2023-01-22T11:56:41Z</time>
      </trkpt>
      <trkpt lat="44.47172" lon="6.70888">
        <ele>1983.82</ele>
        <time>2023-01-22T11:56:54Z</time>
      </trkpt>
      <trkpt lat="44.47171" lon="6.70889">
        <ele>1983.82</ele>
        <time>2023-01-22T11:56:55Z</time>
      </trkpt>
      <trkpt lat="44.4717" lon="6.70892">
        <ele>1982.86</ele>
        <time>2023-01-22T11:56:58Z</time>
      </trkpt>
      <trkpt lat="44.47167" lon="6.70901">
        <ele>1981.9</ele>
        <time>2023-01-22T11:57:05Z</time>
      </trkpt>
      <trkpt lat="44.47167" lon="6.70912">
        <ele>1981.41</ele>
        <time>2023-01-22T11:57:12Z</time>
      </trkpt>
      <trkpt lat="44.47172" lon="6.70928">
        <ele>1979.49</ele>
        <time>2023-01-22T11:57:20Z</time>
      </trkpt>
      <trkpt lat="44.4717" lon="6.70929">
        <ele>1984.3</ele>
        <time>2023-01-22T11:57:43Z</time>
      </trkpt>
      <trkpt lat="44.47172" lon="6.70932">
        <ele>1987.18</ele>
        <time>2023-01-22T11:57:57Z</time>
      </trkpt>
      <trkpt lat="44.4718" lon="6.70932">
        <ele>1982.86</ele>
        <time>2023-01-22T11:58:01Z</time>
      </trkpt>
      <trkpt lat="44.47189" lon="6.70938">
        <ele>1977.57</ele>
        <time>2023-01-22T11:58:07Z</time>
      </trkpt>
      <trkpt lat="44.47191" lon="6.70934">
        <ele>1976.13</ele>
        <time>2023-01-22T11:58:09Z</time>
      </trkpt>
      <trkpt lat="44.47196" lon="6.70935">
        <ele>1975.17</ele>
        <time>2023-01-22T11:58:12Z</time>
      </trkpt>
      <trkpt lat="44.472" lon="6.70947">
        <ele>1973.72</ele>
        <time>2023-01-22T11:58:18Z</time>
      </trkpt>
      <trkpt lat="44.47209" lon="6.70968">
        <ele>1972.28</ele>
        <time>2023-01-22T11:58:24Z</time>
      </trkpt>
      <trkpt lat="44.47225" lon="6.70989">
        <ele>1965.55</ele>
        <time>2023-01-22T11:58:34Z</time>
      </trkpt>
      <trkpt lat="44.47228" lon="6.70988">
        <ele>1962.67</ele>
        <time>2023-01-22T11:58:50Z</time>
      </trkpt>
      <trkpt lat="44.47231" lon="6.71012">
        <ele>1958.82</ele>
        <time>2023-01-22T11:58:59Z</time>
      </trkpt>
      <trkpt lat="44.47234" lon="6.71014">
        <ele>1957.38</ele>
        <time>2023-01-22T11:59:01Z</time>
      </trkpt>
      <trkpt lat="44.47245" lon="6.71012">
        <ele>1952.09</ele>
        <time>2023-01-22T11:59:05Z</time>
      </trkpt>
      <trkpt lat="44.47257" lon="6.71016">
        <ele>1943.44</ele>
        <time>2023-01-22T11:59:11Z</time>
      </trkpt>
      <trkpt lat="44.47273" lon="6.71">
        <ele>1937.19</ele>
        <time>2023-01-22T11:59:23Z</time>
      </trkpt>
      <trkpt lat="44.47275" lon="6.70998">
        <ele>1936.71</ele>
        <time>2023-01-22T11:59:25Z</time>
      </trkpt>
      <trkpt lat="44.47282" lon="6.71001">
        <ele>1932.87</ele>
        <time>2023-01-22T11:59:33Z</time>
      </trkpt>
      <trkpt lat="44.47282" lon="6.71009">
        <ele>1929.5</ele>
        <time>2023-01-22T11:59:40Z</time>
      </trkpt>
      <trkpt lat="44.47292" lon="6.71007">
        <ele>1924.7</ele>
        <time>2023-01-22T11:59:47Z</time>
      </trkpt>
      <trkpt lat="44.47293" lon="6.71007">
        <ele>1922.77</ele>
        <time>2023-01-22T11:59:52Z</time>
      </trkpt>
      <trkpt lat="44.47299" lon="6.71003">
        <ele>1920.37</ele>
        <time>2023-01-22T12:00:05Z</time>
      </trkpt>
      <trkpt lat="44.47301" lon="6.71013">
        <ele>1917.01</ele>
        <time>2023-01-22T12:00:12Z</time>
      </trkpt>
      <trkpt lat="44.47302" lon="6.71016">
        <ele>1916.53</ele>
        <time>2023-01-22T12:00:13Z</time>
      </trkpt>
      <trkpt lat="44.4731" lon="6.71011">
        <ele>1912.68</ele>
        <time>2023-01-22T12:00:22Z</time>
      </trkpt>
      <trkpt lat="44.47309" lon="6.71012">
        <ele>1912.68</ele>
        <time>2023-01-22T12:00:24Z</time>
      </trkpt>
      <trkpt lat="44.47317" lon="6.71002">
        <ele>1907.87</ele>
        <time>2023-01-22T12:00:33Z</time>
      </trkpt>
      <trkpt lat="44.47317" lon="6.71002">
        <ele>1907.87</ele>
        <time>2023-01-22T12:00:34Z</time>
      </trkpt>
      <trkpt lat="44.47332" lon="6.7099">
        <ele>1903.55</ele>
        <time>2023-01-22T12:00:42Z</time>
      </trkpt>
      <trkpt lat="44.47336" lon="6.71009">
        <ele>1899.7</ele>
        <time>2023-01-22T12:00:49Z</time>
      </trkpt>
      <trkpt lat="44.47339" lon="6.71011">
        <ele>1897.78</ele>
        <time>2023-01-22T12:00:55Z</time>
      </trkpt>
      <trkpt lat="44.47339" lon="6.71012">
        <ele>1897.78</ele>
        <time>2023-01-22T12:00:57Z</time>
      </trkpt>
      <trkpt lat="44.47341" lon="6.71018">
        <ele>1896.82</ele>
        <time>2023-01-22T12:01:01Z</time>
      </trkpt>
      <trkpt lat="44.4734" lon="6.71026">
        <ele>1895.38</ele>
        <time>2023-01-22T12:01:05Z</time>
      </trkpt>
      <trkpt lat="44.47332" lon="6.71034">
        <ele>1890.09</ele>
        <time>2023-01-22T12:01:12Z</time>
      </trkpt>
      <trkpt lat="44.47333" lon="6.71033">
        <ele>1889.61</ele>
        <time>2023-01-22T12:01:14Z</time>
      </trkpt>
      <trkpt lat="44.47332" lon="6.71039">
        <ele>1888.65</ele>
        <time>2023-01-22T12:01:20Z</time>
      </trkpt>
      <trkpt lat="44.47334" lon="6.71055">
        <ele>1883.36</ele>
        <time>2023-01-22T12:01:26Z</time>
      </trkpt>
      <trkpt lat="44.47341" lon="6.71061">
        <ele>1877.11</ele>
        <time>2023-01-22T12:01:31Z</time>
      </trkpt>
      <trkpt lat="44.4734" lon="6.71061">
        <ele>1874.23</ele>
        <time>2023-01-22T12:01:43Z</time>
      </trkpt>
      <trkpt lat="44.4734" lon="6.7106">
        <ele>1875.19</ele>
        <time>2023-01-22T12:01:56Z</time>
      </trkpt>
      <trkpt lat="44.47344" lon="6.71068">
        <ele>1873.75</ele>
        <time>2023-01-22T12:02:00Z</time>
      </trkpt>
      <trkpt lat="44.47346" lon="6.71069">
        <ele>1873.27</ele>
        <time>2023-01-22T12:02:01Z</time>
      </trkpt>
      <trkpt lat="44.47348" lon="6.7107">
        <ele>1872.79</ele>
        <time>2023-01-22T12:02:02Z</time>
      </trkpt>
      <trkpt lat="44.47351" lon="6.71072">
        <ele>1872.3</ele>
        <time>2023-01-22T12:02:03Z</time>
      </trkpt>
      <trkpt lat="44.47356" lon="6.71075">
        <ele>1870.38</ele>
        <time>2023-01-22T12:02:08Z</time>
      </trkpt>
      <trkpt lat="44.47335" lon="6.71091">
        <ele>1867.98</ele>
        <time>2023-01-22T12:02:17Z</time>
      </trkpt>
      <trkpt lat="44.47332" lon="6.71111">
        <ele>1866.06</ele>
        <time>2023-01-22T12:02:27Z</time>
      </trkpt>
      <trkpt lat="44.4734" lon="6.71111">
        <ele>1863.65</ele>
        <time>2023-01-22T12:02:30Z</time>
      </trkpt>
      <trkpt lat="44.47343" lon="6.71109">
        <ele>1862.21</ele>
        <time>2023-01-22T12:02:31Z</time>
      </trkpt>
      <trkpt lat="44.47346" lon="6.71109">
        <ele>1861.25</ele>
        <time>2023-01-22T12:02:32Z</time>
      </trkpt>
      <trkpt lat="44.47346" lon="6.71111">
        <ele>1860.29</ele>
        <time>2023-01-22T12:02:33Z</time>
      </trkpt>
      <trkpt lat="44.47346" lon="6.71116">
        <ele>1858.85</ele>
        <time>2023-01-22T12:02:35Z</time>
      </trkpt>
      <trkpt lat="44.4735" lon="6.71119">
        <ele>1856.92</ele>
        <time>2023-01-22T12:02:38Z</time>
      </trkpt>
      <trkpt lat="44.47348" lon="6.71134">
        <ele>1852.12</ele>
        <time>2023-01-22T12:02:44Z</time>
      </trkpt>
      <trkpt lat="44.47348" lon="6.71135">
        <ele>1850.68</ele>
        <time>2023-01-22T12:02:52Z</time>
      </trkpt>
      <trkpt lat="44.47353" lon="6.71141">
        <ele>1847.79</ele>
        <time>2023-01-22T12:03:00Z</time>
      </trkpt>
      <trkpt lat="44.47354" lon="6.71143">
        <ele>1847.31</ele>
        <time>2023-01-22T12:03:02Z</time>
      </trkpt>
      <trkpt lat="44.47357" lon="6.7115">
        <ele>1847.31</ele>
        <time>2023-01-22T12:03:04Z</time>
      </trkpt>
      <trkpt lat="44.4737" lon="6.71167">
        <ele>1844.43</ele>
        <time>2023-01-22T12:03:09Z</time>
      </trkpt>
      <trkpt lat="44.4739" lon="6.7121">
        <ele>1836.26</ele>
        <time>2023-01-22T12:03:17Z</time>
      </trkpt>
      <trkpt lat="44.47394" lon="6.71227">
        <ele>1831.45</ele>
        <time>2023-01-22T12:03:22Z</time>
      </trkpt>
      <trkpt lat="44.47392" lon="6.71227">
        <ele>1830.01</ele>
        <time>2023-01-22T12:03:35Z</time>
      </trkpt>
      <trkpt lat="44.47393" lon="6.71228">
        <ele>1828.08</ele>
        <time>2023-01-22T12:03:56Z</time>
      </trkpt>
      <trkpt lat="44.47397" lon="6.71228">
        <ele>1828.08</ele>
        <time>2023-01-22T12:04:05Z</time>
      </trkpt>
      <trkpt lat="44.47409" lon="6.71232">
        <ele>1828.56</ele>
        <time>2023-01-22T12:04:18Z</time>
      </trkpt>
      <trkpt lat="44.4741" lon="6.7123">
        <ele>1828.08</ele>
        <time>2023-01-22T12:04:35Z</time>
      </trkpt>
      <trkpt lat="44.47417" lon="6.71237">
        <ele>1827.12</ele>
        <time>2023-01-22T12:04:44Z</time>
      </trkpt>
      <trkpt lat="44.47418" lon="6.71261">
        <ele>1823.28</ele>
        <time>2023-01-22T12:04:50Z</time>
      </trkpt>
      <trkpt lat="44.47423" lon="6.71284">
        <ele>1817.51</ele>
        <time>2023-01-22T12:04:55Z</time>
      </trkpt>
      <trkpt lat="44.4743" lon="6.71293">
        <ele>1813.18</ele>
        <time>2023-01-22T12:05:00Z</time>
      </trkpt>
      <trkpt lat="44.47429" lon="6.71293">
        <ele>1812.7</ele>
        <time>2023-01-22T12:05:18Z</time>
      </trkpt>
      <trkpt lat="44.4743" lon="6.71293">
        <ele>1812.22</ele>
        <time>2023-01-22T12:05:27Z</time>
      </trkpt>
      <trkpt lat="44.47422" lon="6.71305">
        <ele>1809.82</ele>
        <time>2023-01-22T12:05:34Z</time>
      </trkpt>
      <trkpt lat="44.47418" lon="6.71307">
        <ele>1808.86</ele>
        <time>2023-01-22T12:05:35Z</time>
      </trkpt>
      <trkpt lat="44.47402" lon="6.71326">
        <ele>1806.45</ele>
        <time>2023-01-22T12:05:40Z</time>
      </trkpt>
      <trkpt lat="44.47409" lon="6.71364">
        <ele>1799.73</ele>
        <time>2023-01-22T12:05:46Z</time>
      </trkpt>
      <trkpt lat="44.47442" lon="6.71403">
        <ele>1793.96</ele>
        <time>2023-01-22T12:05:56Z</time>
      </trkpt>
      <trkpt lat="44.47457" lon="6.71456">
        <ele>1786.75</ele>
        <time>2023-01-22T12:06:04Z</time>
      </trkpt>
      <trkpt lat="44.47456" lon="6.7147">
        <ele>1785.79</ele>
        <time>2023-01-22T12:06:06Z</time>
      </trkpt>
      <trkpt lat="44.47464" lon="6.71523">
        <ele>1782.42</ele>
        <time>2023-01-22T12:06:17Z</time>
      </trkpt>
      <trkpt lat="44.47464" lon="6.71524">
        <ele>1781.94</ele>
        <time>2023-01-22T12:06:34Z</time>
      </trkpt>
      <trkpt lat="44.47463" lon="6.71525">
        <ele>1781.94</ele>
        <time>2023-01-22T12:06:55Z</time>
      </trkpt>
      <trkpt lat="44.47464" lon="6.71525">
        <ele>1780.02</ele>
        <time>2023-01-22T12:07:17Z</time>
      </trkpt>
      <trkpt lat="44.47464" lon="6.71526">
        <ele>1780.02</ele>
        <time>2023-01-22T12:07:39Z</time>
      </trkpt>
      <trkpt lat="44.47484" lon="6.7154">
        <ele>1772.81</ele>
        <time>2023-01-22T12:07:46Z</time>
      </trkpt>
      <trkpt lat="44.47504" lon="6.71554">
        <ele>1767.52</ele>
        <time>2023-01-22T12:07:51Z</time>
      </trkpt>
      <trkpt lat="44.47533" lon="6.71563">
        <ele>1761.27</ele>
        <time>2023-01-22T12:07:58Z</time>
      </trkpt>
      <trkpt lat="44.47539" lon="6.71571">
        <ele>1760.31</ele>
        <time>2023-01-22T12:08:12Z</time>
      </trkpt>
      <trkpt lat="44.4754" lon="6.71572">
        <ele>1760.79</ele>
        <time>2023-01-22T12:08:18Z</time>
      </trkpt>
      <trkpt lat="44.47545" lon="6.71579">
        <ele>1760.31</ele>
        <time>2023-01-22T12:08:23Z</time>
      </trkpt>
      <trkpt lat="44.47554" lon="6.71594">
        <ele>1759.83</ele>
        <time>2023-01-22T12:08:28Z</time>
      </trkpt>
      <trkpt lat="44.47592" lon="6.71641">
        <ele>1755.99</ele>
        <time>2023-01-22T12:08:42Z</time>
      </trkpt>
      <trkpt lat="44.47605" lon="6.71654">
        <ele>1754.54</ele>
        <time>2023-01-22T12:08:47Z</time>
      </trkpt>
      <trkpt lat="44.47596" lon="6.71673">
        <ele>1750.7</ele>
        <time>2023-01-22T12:08:55Z</time>
      </trkpt>
      <trkpt lat="44.47593" lon="6.7169">
        <ele>1747.81</ele>
        <time>2023-01-22T12:09:03Z</time>
      </trkpt>
      <trkpt lat="44.47594" lon="6.71693">
        <ele>1745.41</ele>
        <time>2023-01-22T12:09:12Z</time>
      </trkpt>
      <trkpt lat="44.47593" lon="6.71698">
        <ele>1745.89</ele>
        <time>2023-01-22T12:09:22Z</time>
      </trkpt>
      <trkpt lat="44.47594" lon="6.71706">
        <ele>1745.41</ele>
        <time>2023-01-22T12:09:26Z</time>
      </trkpt>
      <trkpt lat="44.4759" lon="6.71742">
        <ele>1743.01</ele>
        <time>2023-01-22T12:09:38Z</time>
      </trkpt>
      <trkpt lat="44.47588" lon="6.71747">
        <ele>1742.05</ele>
        <time>2023-01-22T12:09:39Z</time>
      </trkpt>
      <trkpt lat="44.47586" lon="6.71752">
        <ele>1741.57</ele>
        <time>2023-01-22T12:09:40Z</time>
      </trkpt>
      <trkpt lat="44.47577" lon="6.71771">
        <ele>1739.64</ele>
        <time>2023-01-22T12:09:43Z</time>
      </trkpt>
      <trkpt lat="44.47573" lon="6.71776">
        <ele>1739.16</ele>
        <time>2023-01-22T12:09:44Z</time>
      </trkpt>
      <trkpt lat="44.47534" lon="6.71825">
        <ele>1736.28</ele>
        <time>2023-01-22T12:09:56Z</time>
      </trkpt>
      <trkpt lat="44.47523" lon="6.7184">
        <ele>1735.32</ele>
        <time>2023-01-22T12:10:00Z</time>
      </trkpt>
      <trkpt lat="44.4752" lon="6.71844">
        <ele>1735.32</ele>
        <time>2023-01-22T12:10:01Z</time>
      </trkpt>
      <trkpt lat="44.47517" lon="6.71848">
        <ele>1735.32</ele>
        <time>2023-01-22T12:10:02Z</time>
      </trkpt>
      <trkpt lat="44.47513" lon="6.71851">
        <ele>1735.32</ele>
        <time>2023-01-22T12:10:03Z</time>
      </trkpt>
      <trkpt lat="44.4751" lon="6.71856">
        <ele>1734.84</ele>
        <time>2023-01-22T12:10:04Z</time>
      </trkpt>
      <trkpt lat="44.47507" lon="6.71859">
        <ele>1734.84</ele>
        <time>2023-01-22T12:10:05Z</time>
      </trkpt>
      <trkpt lat="44.47481" lon="6.7189">
        <ele>1733.88</ele>
        <time>2023-01-22T12:10:14Z</time>
      </trkpt>
      <trkpt lat="44.47459" lon="6.71916">
        <ele>1733.39</ele>
        <time>2023-01-22T12:10:23Z</time>
      </trkpt>
      <trkpt lat="44.47447" lon="6.71928">
        <ele>1732.91</ele>
        <time>2023-01-22T12:10:29Z</time>
      </trkpt>
      <trkpt lat="44.47446" lon="6.7193">
        <ele>1732.91</ele>
        <time>2023-01-22T12:10:30Z</time>
      </trkpt>
      <trkpt lat="44.47444" lon="6.71932">
        <ele>1732.91</ele>
        <time>2023-01-22T12:10:31Z</time>
      </trkpt>
      <trkpt lat="44.47442" lon="6.71934">
        <ele>1732.91</ele>
        <time>2023-01-22T12:10:32Z</time>
      </trkpt>
      <trkpt lat="44.47441" lon="6.71936">
        <ele>1732.91</ele>
        <time>2023-01-22T12:10:33Z</time>
      </trkpt>
      <trkpt lat="44.47434" lon="6.71942">
        <ele>1732.43</ele>
        <time>2023-01-22T12:10:37Z</time>
      </trkpt>
      <trkpt lat="44.47433" lon="6.71944">
        <ele>1732.43</ele>
        <time>2023-01-22T12:10:38Z</time>
      </trkpt>
      <trkpt lat="44.47431" lon="6.71948">
        <ele>1731.95</ele>
        <time>2023-01-22T12:10:40Z</time>
      </trkpt>
      <trkpt lat="44.47431" lon="6.7195">
        <ele>1731.47</ele>
        <time>2023-01-22T12:10:41Z</time>
      </trkpt>
      <trkpt lat="44.4743" lon="6.71952">
        <ele>1731.47</ele>
        <time>2023-01-22T12:10:42Z</time>
      </trkpt>
      <trkpt lat="44.4743" lon="6.71955">
        <ele>1731.47</ele>
        <time>2023-01-22T12:10:43Z</time>
      </trkpt>
      <trkpt lat="44.47429" lon="6.71957">
        <ele>1731.47</ele>
        <time>2023-01-22T12:10:44Z</time>
      </trkpt>
      <trkpt lat="44.47421" lon="6.71978">
        <ele>1731.95</ele>
        <time>2023-01-22T12:10:55Z</time>
      </trkpt>
      <trkpt lat="44.4741" lon="6.7201">
        <ele>1730.99</ele>
        <time>2023-01-22T12:11:08Z</time>
      </trkpt>
      <trkpt lat="44.47396" lon="6.72038">
        <ele>1728.11</ele>
        <time>2023-01-22T12:11:23Z</time>
      </trkpt>
      <trkpt lat="44.47397" lon="6.72039">
        <ele>1729.07</ele>
        <time>2023-01-22T12:11:36Z</time>
      </trkpt>
      <trkpt lat="44.47397" lon="6.7204">
        <ele>1729.07</ele>
        <time>2023-01-22T12:11:49Z</time>
      </trkpt>
      <trkpt lat="44.47396" lon="6.72041">
        <ele>1729.07</ele>
        <time>2023-01-22T12:12:02Z</time>
      </trkpt>
      <trkpt lat="44.47397" lon="6.72039">
        <ele>1728.11</ele>
        <time>2023-01-22T12:12:13Z</time>
      </trkpt>
      <trkpt lat="44.47399" lon="6.72043">
        <ele>1728.59</ele>
        <time>2023-01-22T12:12:22Z</time>
      </trkpt>
      <trkpt lat="44.47399" lon="6.72046">
        <ele>1728.59</ele>
        <time>2023-01-22T12:12:24Z</time>
      </trkpt>
      <trkpt lat="44.47399" lon="6.72049">
        <ele>1728.59</ele>
        <time>2023-01-22T12:12:37Z</time>
      </trkpt>
      <trkpt lat="44.47398" lon="6.72047">
        <ele>1729.07</ele>
        <time>2023-01-22T12:12:53Z</time>
      </trkpt>
      <trkpt lat="44.47399" lon="6.7205">
        <ele>1729.07</ele>
        <time>2023-01-22T12:13:03Z</time>
      </trkpt>
      <trkpt lat="44.47399" lon="6.7205">
        <ele>1729.07</ele>
        <time>2023-01-22T12:13:13Z</time>
      </trkpt>
      <trkpt lat="44.47399" lon="6.72049">
        <ele>1729.55</ele>
        <time>2023-01-22T12:13:23Z</time>
      </trkpt>
      <trkpt lat="44.47398" lon="6.72049">
        <ele>1729.07</ele>
        <time>2023-01-22T12:13:36Z</time>
      </trkpt>
      <trkpt lat="44.47399" lon="6.72051">
        <ele>1727.63</ele>
        <time>2023-01-22T12:14:10Z</time>
      </trkpt>
      <trkpt lat="44.47399" lon="6.72048">
        <ele>1725.7</ele>
        <time>2023-01-22T12:14:45Z</time>
      </trkpt>
      <trkpt lat="44.474" lon="6.7205">
        <ele>1724.74</ele>
        <time>2023-01-22T12:15:22Z</time>
      </trkpt>
      <trkpt lat="44.47399" lon="6.7205">
        <ele>1728.59</ele>
        <time>2023-01-22T12:16:06Z</time>
      </trkpt>
      <trkpt lat="44.47397" lon="6.72048">
        <ele>1729.07</ele>
        <time>2023-01-22T12:16:39Z</time>
      </trkpt>
      <trkpt lat="44.474" lon="6.72049">
        <ele>1727.63</ele>
        <time>2023-01-22T12:17:19Z</time>
      </trkpt>
      <trkpt lat="44.47399" lon="6.72048">
        <ele>1725.22</ele>
        <time>2023-01-22T12:17:45Z</time>
      </trkpt>
      <trkpt lat="44.474" lon="6.72046">
        <ele>1728.11</ele>
        <time>2023-01-22T12:18:13Z</time>
      </trkpt>
      <trkpt lat="44.47398" lon="6.7205">
        <ele>1730.03</ele>
        <time>2023-01-22T12:18:36Z</time>
      </trkpt>
      <trkpt lat="44.474" lon="6.72048">
        <ele>1726.67</ele>
        <time>2023-01-22T12:19:01Z</time>
      </trkpt>
      <trkpt lat="44.47398" lon="6.72052">
        <ele>1728.11</ele>
        <time>2023-01-22T12:19:15Z</time>
      </trkpt>
    </trkseg>
  </trk>
</gpx>